Wetterdaten: Samstag, 19.06.2021
Datum Zeit Temp. Aussen Temp. o. S. Temp +5cm Feuchte Auss Luftdruck Regen Sonnenschein Regendauer Solar Windben Empfang
19.06.2021 00:00 26,4 C 25,0 C 22,8 C 68 % 1012,4 hPa 0,0 l/m 0 min 0 min 0 W/m 6,4 km/h (2 Bft) 97,87 %
19.06.2021 00:02 26,4 C 25,0 C 22,8 C 68 % 1012,4 hPa 0,0 l/m 0 min 0 min 0 W/m 6,4 km/h (2 Bft) 95,12 %
19.06.2021 00:04 26,3 C 25,0 C 22,8 C 68 % 1012,4 hPa 0,0 l/m 0 min 0 min 0 W/m 3,2 km/h (1 Bft) 97,83 %
19.06.2021 00:08 26,2 C 25,0 C 22,8 C 68 % 1012,3 hPa 0,0 l/m 0 min 0 min 0 W/m 6,4 km/h (2 Bft) 97,87 %
19.06.2021 00:10 26,2 C 25,0 C 22,8 C 69 % 1012,3 hPa 0,0 l/m 0 min 0 min 0 W/m 6,4 km/h (2 Bft) 97,87 %
19.06.2021 00:12 26,1 C 25,0 C 22,3 C 69 % 1012,3 hPa 0,0 l/m 0 min 0 min 0 W/m 9,7 km/h (2 Bft) 97,87 %
19.06.2021 00:14 26,1 C 25,0 C 22,3 C 69 % 1012,4 hPa 0,0 l/m 0 min 0 min 0 W/m 6,4 km/h (2 Bft) 100,00 %
19.06.2021 00:16 26,0 C 25,0 C 22,8 C 69 % 1012,4 hPa 0,0 l/m 0 min 0 min 0 W/m 6,4 km/h (2 Bft) 100,00 %
19.06.2021 00:18 26,0 C 25,0 C 22,8 C 69 % 1012,5 hPa 0,0 l/m 0 min 0 min 0 W/m 6,4 km/h (2 Bft) 100,00 %
19.06.2021 00:20 26,0 C 25,0 C 22,8 C 70 % 1012,5 hPa 0,0 l/m 0 min 0 min 0 W/m 6,4 km/h (2 Bft) 100,00 %
19.06.2021 00:22 25,9 C 25,0 C 22,8 C 70 % 1012,5 hPa 0,0 l/m 0 min 0 min 0 W/m 3,2 km/h (1 Bft) 100,00 %
19.06.2021 00:24 25,9 C 24,4 C 22,3 C 70 % 1012,5 hPa 0,0 l/m 0 min 0 min 0 W/m 6,4 km/h (2 Bft) 100,00 %
19.06.2021 00:26 25,8 C 24,4 C 22,3 C 70 % 1012,6 hPa 0,0 l/m 0 min 0 min 0 W/m 6,4 km/h (2 Bft) 100,00 %
19.06.2021 00:28 25,8 C 24,4 C 22,3 C 70 % 1012,5 hPa 0,0 l/m 0 min 0 min 0 W/m 6,4 km/h (2 Bft) 100,00 %
19.06.2021 00:30 25,8 C 24,4 C 22,3 C 71 % 1012,6 hPa 0,0 l/m 0 min 0 min 0 W/m 6,4 km/h (2 Bft) 100,00 %
19.06.2021 00:32 25,8 C 24,4 C 22,3 C 71 % 1012,6 hPa 0,0 l/m 0 min 0 min 0 W/m 3,2 km/h (1 Bft) 97,87 %
19.06.2021 00:34 25,7 C 24,4 C 22,3 C 71 % 1012,6 hPa 0,0 l/m 0 min 0 min 0 W/m 6,4 km/h (2 Bft) 100,00 %
19.06.2021 00:36 25,7 C 24,4 C 22,3 C 71 % 1012,6 hPa 0,0 l/m 0 min 0 min 0 W/m 6,4 km/h (2 Bft) 100,00 %
19.06.2021 00:38 25,6 C 24,4 C 22,3 C 71 % 1012,6 hPa 0,0 l/m 0 min 0 min 0 W/m 6,4 km/h (2 Bft) 100,00 %
19.06.2021 00:40 25,6 C 24,4 C 22,3 C 71 % 1012,6 hPa 0,0 l/m 0 min 0 min 0 W/m 3,2 km/h (1 Bft) 100,00 %
19.06.2021 00:42 25,5 C 24,4 C 22,3 C 71 % 1012,5 hPa 0,0 l/m 0 min 0 min 0 W/m 3,2 km/h (1 Bft) 97,87 %
19.06.2021 00:44 25,5 C 24,4 C 22,3 C 71 % 1012,5 hPa 0,0 l/m 0 min 0 min 0 W/m 12,9 km/h (3 Bft) 97,87 %
19.06.2021 00:46 25,5 C 24,4 C 22,3 C 71 % 1012,5 hPa 0,0 l/m 0 min 0 min 0 W/m 6,4 km/h (2 Bft) 95,74 %
19.06.2021 00:48 25,5 C 24,4 C 21,7 C 72 % 1012,4 hPa 0,0 l/m 0 min 0 min 0 W/m 6,4 km/h (2 Bft) 97,87 %
19.06.2021 00:50 25,4 C 23,9 C 21,7 C 71 % 1012,4 hPa 0,0 l/m 0 min 0 min 0 W/m 12,9 km/h (3 Bft) 97,83 %
19.06.2021 00:52 25,4 C 23,9 C 21,7 C 72 % 1012,4 hPa 0,0 l/m 0 min 0 min 0 W/m 12,9 km/h (3 Bft) 97,87 %
19.06.2021 00:54 25,3 C 23,9 C 21,7 C 72 % 1012,4 hPa 0,0 l/m 0 min 0 min 0 W/m 12,9 km/h (3 Bft) 97,87 %
19.06.2021 00:56 25,3 C 23,9 C 21,7 C 72 % 1012,4 hPa 0,0 l/m 0 min 0 min 0 W/m 6,4 km/h (2 Bft) 97,87 %
19.06.2021 00:58 25,2 C 23,9 C 21,7 C 72 % 1012,4 hPa 0,0 l/m 0 min 0 min 0 W/m 16,1 km/h (3 Bft) 97,87 %
19.06.2021 01:00 25,1 C 23,9 C 21,7 C 72 % 1012,5 hPa 0,0 l/m 0 min 0 min 0 W/m 3,2 km/h (1 Bft) 97,83 %
19.06.2021 01:02 25,1 C 23,9 C 21,7 C 72 % 1012,5 hPa 0,0 l/m 0 min 0 min 0 W/m 6,4 km/h (2 Bft) 97,87 %
19.06.2021 01:04 25,1 C 23,9 C 21,7 C 72 % 1012,5 hPa 0,0 l/m 0 min 0 min 0 W/m 3,2 km/h (1 Bft) 95,74 %
19.06.2021 01:06 25,1 C 23,9 C 21,7 C 71 % 1012,5 hPa 0,0 l/m 0 min 0 min 0 W/m 6,4 km/h (2 Bft) 97,87 %
19.06.2021 01:08 25,1 C 23,9 C 21,7 C 71 % 1012,5 hPa 0,0 l/m 0 min 0 min 0 W/m 12,9 km/h (3 Bft) 97,87 %
19.06.2021 01:10 25,1 C 23,9 C 21,7 C 71 % 1012,5 hPa 0,0 l/m 0 min 0 min 0 W/m 6,4 km/h (2 Bft) 95,24 %
19.06.2021 01:12 25,0 C 23,9 C 21,7 C 71 % 1012,5 hPa 0,0 l/m 0 min 0 min 0 W/m 6,4 km/h (2 Bft) 97,87 %
19.06.2021 01:14 25,0 C 23,9 C 21,7 C 71 % 1012,5 hPa 0,0 l/m 0 min 0 min 0 W/m 16,1 km/h (3 Bft) 97,83 %
19.06.2021 01:16 24,9 C 23,9 C 21,7 C 71 % 1012,5 hPa 0,0 l/m 0 min 0 min 0 W/m 3,2 km/h (1 Bft) 97,87 %
19.06.2021 01:18 24,9 C 23,9 C 21,7 C 71 % 1012,5 hPa 0,0 l/m 0 min 0 min 0 W/m 3,2 km/h (1 Bft) 97,87 %
19.06.2021 01:20 24,9 C 23,9 C 21,7 C 71 % 1012,5 hPa 0,0 l/m 0 min 0 min 0 W/m 6,4 km/h (2 Bft) 97,87 %
19.06.2021 01:22 24,8 C 23,9 C 21,7 C 71 % 1012,6 hPa 0,0 l/m 0 min 0 min 0 W/m 6,4 km/h (2 Bft) 97,87 %
19.06.2021 01:24 24,8 C 23,9 C 21,7 C 72 % 1012,5 hPa 0,0 l/m 0 min 0 min 0 W/m 3,2 km/h (1 Bft) 95,74 %
19.06.2021 01:26 24,8 C 23,9 C 21,1 C 72 % 1012,5 hPa 0,0 l/m 0 min 0 min 0 W/m 6,4 km/h (2 Bft) 100,00 %
19.06.2021 01:28 24,7 C 23,3 C 21,1 C 72 % 1012,6 hPa 0,0 l/m 0 min 0 min 0 W/m 3,2 km/h (1 Bft) 100,00 %
19.06.2021 01:30 24,7 C 23,3 C 21,1 C 72 % 1012,5 hPa 0,0 l/m 0 min 0 min 0 W/m 6,4 km/h (2 Bft) 100,00 %
19.06.2021 01:32 24,6 C 23,3 C 21,1 C 72 % 1012,5 hPa 0,0 l/m 0 min 0 min 0 W/m 6,4 km/h (2 Bft) 100,00 %
19.06.2021 01:34 24,6 C 23,3 C 21,1 C 72 % 1012,6 hPa 0,0 l/m 0 min 0 min 0 W/m 6,4 km/h (2 Bft) 100,00 %
19.06.2021 01:36 24,5 C 23,3 C 21,1 C 72 % 1012,6 hPa 0,0 l/m 0 min 0 min 0 W/m 6,4 km/h (2 Bft) 97,87 %
19.06.2021 01:38 24,5 C 23,3 C 21,1 C 72 % 1012,6 hPa 0,0 l/m 0 min 0 min 0 W/m 6,4 km/h (2 Bft) 100,00 %
19.06.2021 01:40 24,5 C 23,3 C 21,1 C 72 % 1012,6 hPa 0,0 l/m 0 min 0 min 0 W/m 6,4 km/h (2 Bft) 97,87 %
19.06.2021 01:42 24,4 C 23,3 C 21,1 C 72 % 1012,6 hPa 0,0 l/m 0 min 0 min 0 W/m 6,4 km/h (2 Bft) 100,00 %
19.06.2021 01:44 24,4 C 23,3 C 21,1 C 72 % 1012,6 hPa 0,0 l/m 0 min 0 min 0 W/m 9,7 km/h (2 Bft) 100,00 %
19.06.2021 01:46 24,3 C 23,3 C 21,1 C 72 % 1012,6 hPa 0,0 l/m 0 min 0 min 0 W/m 6,4 km/h (2 Bft) 100,00 %
19.06.2021 01:48 24,3 C 23,3 C 21,1 C 72 % 1012,6 hPa 0,0 l/m 0 min 0 min 0 W/m 6,4 km/h (2 Bft) 97,83 %
19.06.2021 01:50 24,3 C 23,3 C 21,1 C 72 % 1012,6 hPa 0,0 l/m 0 min 0 min 0 W/m 6,4 km/h (2 Bft) 100,00 %
19.06.2021 01:52 24,3 C 23,3 C 21,1 C 72 % 1012,7 hPa 0,0 l/m 0 min 0 min 0 W/m 12,9 km/h (3 Bft) 100,00 %
19.06.2021 01:54 24,3 C 23,3 C 21,1 C 72 % 1012,7 hPa 0,0 l/m 0 min 0 min 0 W/m 9,7 km/h (2 Bft) 100,00 %
19.06.2021 01:56 24,3 C 23,3 C 21,1 C 72 % 1012,7 hPa 0,0 l/m 0 min 0 min 0 W/m 6,4 km/h (2 Bft) 97,87 %
19.06.2021 01:58 24,3 C 23,3 C 21,1 C 72 % 1012,8 hPa 0,0 l/m 0 min 0 min 0 W/m 3,2 km/h (1 Bft) 97,87 %
19.06.2021 02:00 24,2 C 23,3 C 21,1 C 72 % 1012,7 hPa 0,0 l/m 0 min 0 min 0 W/m 6,4 km/h (2 Bft) 97,83 %
19.06.2021 02:02 24,2 C 23,3 C 21,1 C 72 % 1012,8 hPa 0,0 l/m 0 min 0 min 0 W/m 6,4 km/h (2 Bft) 97,87 %
19.06.2021 02:04 24,1 C 23,3 C 20,6 C 72 % 1012,7 hPa 0,0 l/m 0 min 0 min 0 W/m 6,4 km/h (2 Bft) 97,87 %
19.06.2021 02:06 24,1 C 22,8 C 20,6 C 72 % 1012,8 hPa 0,0 l/m 0 min 0 min 0 W/m 6,4 km/h (2 Bft) 97,87 %
19.06.2021 02:08 24,1 C 22,8 C 20,6 C 72 % 1012,8 hPa 0,0 l/m 0 min 0 min 0 W/m 3,2 km/h (1 Bft) 97,87 %
19.06.2021 02:10 24,1 C 22,8 C 20,6 C 73 % 1012,8 hPa 0,0 l/m 0 min 0 min 0 W/m 6,4 km/h (2 Bft) 98,00 %
19.06.2021 02:12 24,0 C 22,8 C 20,6 C 73 % 1012,8 hPa 0,0 l/m 0 min 0 min 0 W/m 3,2 km/h (1 Bft) 97,83 %
19.06.2021 02:14 24,0 C 22,8 C 20,6 C 73 % 1012,9 hPa 0,0 l/m 0 min 0 min 0 W/m 6,4 km/h (2 Bft) 97,87 %
19.06.2021 02:16 24,0 C 22,8 C 20,6 C 73 % 1012,9 hPa 0,0 l/m 0 min 0 min 0 W/m 6,4 km/h (2 Bft) 95,74 %
19.06.2021 02:18 24,0 C 22,8 C 20,6 C 73 % 1013,0 hPa 0,0 l/m 0 min 0 min 0 W/m 6,4 km/h (2 Bft) 97,87 %
19.06.2021 02:20 23,9 C 22,8 C 20,6 C 73 % 1013,0 hPa 0,0 l/m 0 min 0 min 0 W/m 3,2 km/h (1 Bft) 97,87 %
19.06.2021 02:22 23,9 C 22,8 C 20,6 C 74 % 1013,0 hPa 0,0 l/m 0 min 0 min 0 W/m 3,2 km/h (1 Bft) 97,83 %
19.06.2021 02:24 23,9 C 22,8 C 20,6 C 74 % 1013,0 hPa 0,0 l/m 0 min 0 min 0 W/m 3,2 km/h (1 Bft) 97,87 %
19.06.2021 02:26 23,8 C 22,8 C 20,6 C 74 % 1013,0 hPa 0,0 l/m 0 min 0 min 0 W/m 3,2 km/h (1 Bft) 97,87 %
19.06.2021 02:28 23,8 C 22,8 C 20,6 C 74 % 1012,9 hPa 0,0 l/m 0 min 0 min 0 W/m 3,2 km/h (1 Bft) 97,87 %
19.06.2021 02:30 23,8 C 22,8 C 20,6 C 74 % 1013,0 hPa 0,0 l/m 0 min 0 min 0 W/m 3,2 km/h (1 Bft) 97,87 %
19.06.2021 02:32 23,7 C 22,2 C 20,6 C 74 % 1013,0 hPa 0,0 l/m 0 min 0 min 0 W/m 3,2 km/h (1 Bft) 97,87 %
19.06.2021 02:34 23,6 C 22,2 C 20,6 C 74 % 1013,0 hPa 0,0 l/m 0 min 0 min 0 W/m 3,2 km/h (1 Bft) 97,83 %
19.06.2021 02:36 23,6 C 22,2 C 20,0 C 75 % 1013,0 hPa 0,0 l/m 0 min 0 min 0 W/m 3,2 km/h (1 Bft) 97,87 %
19.06.2021 02:38 23,6 C 22,2 C 20,0 C 75 % 1013,0 hPa 0,0 l/m 0 min 0 min 0 W/m 3,2 km/h (1 Bft) 97,87 %
19.06.2021 02:40 23,5 C 22,2 C 20,0 C 75 % 1013,0 hPa 0,0 l/m 0 min 0 min 0 W/m 6,4 km/h (2 Bft) 97,87 %
19.06.2021 02:42 23,5 C 22,2 C 20,0 C 75 % 1013,0 hPa 0,0 l/m 0 min 0 min 0 W/m 6,4 km/h (2 Bft) 95,74 %
19.06.2021 02:44 23,5 C 22,2 C 20,0 C 75 % 1013,1 hPa 0,0 l/m 0 min 0 min 0 W/m 3,2 km/h (1 Bft) 95,74 %
19.06.2021 02:46 23,4 C 22,2 C 20,0 C 75 % 1013,1 hPa 0,0 l/m 0 min 0 min 0 W/m 3,2 km/h (1 Bft) 95,65 %
19.06.2021 02:48 23,4 C 22,2 C 20,0 C 75 % 1013,1 hPa 0,0 l/m 0 min 0 min 0 W/m 6,4 km/h (2 Bft) 95,74 %
19.06.2021 02:50 23,4 C 22,2 C 20,0 C 76 % 1013,1 hPa 0,0 l/m 0 min 0 min 0 W/m 3,2 km/h (1 Bft) 97,87 %
19.06.2021 02:52 23,3 C 22,2 C 20,0 C 76 % 1013,1 hPa 0,0 l/m 0 min 0 min 0 W/m 3,2 km/h (1 Bft) 97,87 %
19.06.2021 02:54 23,3 C 22,2 C 20,0 C 76 % 1013,1 hPa 0,0 l/m 0 min 0 min 0 W/m 0,0 km/h (0 Bft) 97,87 %
19.06.2021 02:56 23,3 C 22,2 C 20,0 C 76 % 1013,1 hPa 0,0 l/m 0 min 0 min 0 W/m 6,4 km/h (2 Bft) 97,87 %
19.06.2021 02:58 23,2 C 22,2 C 20,0 C 76 % 1013,1 hPa 0,0 l/m 0 min 0 min 0 W/m 16,1 km/h (3 Bft) 97,83 %
19.06.2021 03:00 23,2 C 22,2 C 20,0 C 76 % 1013,1 hPa 0,0 l/m 0 min 0 min 0 W/m 6,4 km/h (2 Bft) 95,74 %
19.06.2021 03:02 23,2 C 22,2 C 20,0 C 76 % 1013,1 hPa 0,0 l/m 0 min 0 min 0 W/m 6,4 km/h (2 Bft) 97,87 %
19.06.2021 03:04 23,1 C 22,2 C 20,0 C 76 % 1013,1 hPa 0,0 l/m 0 min 0 min 0 W/m 6,4 km/h (2 Bft) 97,87 %
19.06.2021 03:06 23,1 C 22,2 C 20,0 C 75 % 1013,1 hPa 0,0 l/m 0 min 0 min 0 W/m 3,2 km/h (1 Bft) 97,87 %
19.06.2021 03:08 23,1 C 22,2 C 20,0 C 76 % 1013,2 hPa 0,0 l/m 0 min 0 min 0 W/m 6,4 km/h (2 Bft) 97,92 %
19.06.2021 03:10 23,0 C 22,2 C 20,0 C 76 % 1013,1 hPa 0,0 l/m 0 min 0 min 0 W/m 6,4 km/h (2 Bft) 97,87 %
19.06.2021 03:12 23,0 C 22,2 C 20,0 C 76 % 1013,1 hPa 0,0 l/m 0 min 0 min 0 W/m 3,2 km/h (1 Bft) 97,87 %
19.06.2021 03:14 23,0 C 22,2 C 20,0 C 76 % 1013,1 hPa 0,0 l/m 0 min 0 min 0 W/m 6,4 km/h (2 Bft) 100,00 %
19.06.2021 03:16 23,0 C 22,2 C 20,0 C 76 % 1013,1 hPa 0,0 l/m 0 min 0 min 0 W/m 3,2 km/h (1 Bft) 97,87 %
19.06.2021 03:18 22,9 C 22,2 C 20,0 C 76 % 1013,1 hPa 0,0 l/m 0 min 0 min 0 W/m 6,4 km/h (2 Bft) 97,87 %
19.06.2021 03:20 22,9 C 21,7 C 20,0 C 76 % 1013,1 hPa 0,0 l/m 0 min 0 min 0 W/m 6,4 km/h (2 Bft) 95,74 %
19.06.2021 03:22 22,9 C 21,7 C 20,0 C 76 % 1013,1 hPa 0,0 l/m 0 min 0 min 0 W/m 6,4 km/h (2 Bft) 95,65 %
19.06.2021 03:24 22,9 C 21,7 C 20,0 C 76 % 1013,1 hPa 0,0 l/m 0 min 0 min 0 W/m 3,2 km/h (1 Bft) 95,74 %
19.06.2021 03:26 22,9 C 21,7 C 20,0 C 76 % 1013,1 hPa 0,0 l/m 0 min 0 min 0 W/m 6,4 km/h (2 Bft) 93,62 %
19.06.2021 03:28 22,8 C 21,7 C 20,0 C 76 % 1013,1 hPa 0,0 l/m 0 min 0 min 0 W/m 3,2 km/h (1 Bft) 95,74 %
19.06.2021 03:30 22,8 C 21,7 C 20,0 C 76 % 1013,1 hPa 0,0 l/m 0 min 0 min 0 W/m 3,2 km/h (1 Bft) 95,74 %
19.06.2021 03:32 22,8 C 21,7 C 20,0 C 76 % 1013,1 hPa 0,0 l/m 0 min 0 min 0 W/m 3,2 km/h (1 Bft) 93,48 %
19.06.2021 03:34 22,7 C 21,7 C 19,5 C 76 % 1013,1 hPa 0,0 l/m 0 min 0 min 0 W/m 6,4 km/h (2 Bft) 95,74 %
19.06.2021 03:36 22,7 C 21,7 C 19,5 C 77 % 1013,1 hPa 0,0 l/m 0 min 0 min 0 W/m 3,2 km/h (1 Bft) 95,74 %
19.06.2021 03:38 22,7 C 21,7 C 19,5 C 77 % 1013,1 hPa 0,0 l/m 0 min 0 min 0 W/m 6,4 km/h (2 Bft) 95,74 %
19.06.2021 03:40 22,6 C 21,7 C 19,5 C 77 % 1013,1 hPa 0,0 l/m 0 min 0 min 0 W/m 12,9 km/h (3 Bft) 93,62 %
19.06.2021 03:42 22,6 C 21,7 C 19,5 C 77 % 1013,2 hPa 0,0 l/m 0 min 0 min 0 W/m 12,9 km/h (3 Bft) 95,74 %
19.06.2021 03:44 22,6 C 21,7 C 19,5 C 77 % 1013,1 hPa 0,0 l/m 0 min 0 min 0 W/m 12,9 km/h (3 Bft) 97,83 %
19.06.2021 03:46 22,5 C 21,7 C 19,5 C 77 % 1013,1 hPa 0,0 l/m 0 min 0 min 0 W/m 3,2 km/h (1 Bft) 97,87 %
19.06.2021 03:48 22,5 C 21,7 C 19,5 C 77 % 1013,1 hPa 0,0 l/m 0 min 0 min 0 W/m 3,2 km/h (1 Bft) 97,87 %
19.06.2021 03:50 22,5 C 21,7 C 19,5 C 77 % 1013,2 hPa 0,0 l/m 0 min 0 min 0 W/m 3,2 km/h (1 Bft) 97,87 %
19.06.2021 03:52 22,5 C 21,7 C 19,5 C 77 % 1013,2 hPa 0,0 l/m 0 min 0 min 0 W/m 3,2 km/h (1 Bft) 97,87 %
19.06.2021 03:54 22,5 C 21,7 C 19,5 C 77 % 1013,2 hPa 0,0 l/m 0 min 0 min 0 W/m 6,4 km/h (2 Bft) 95,74 %
19.06.2021 03:56 22,5 C 21,1 C 19,5 C 77 % 1013,3 hPa 0,0 l/m 0 min 0 min 0 W/m 6,4 km/h (2 Bft) 97,83 %
19.06.2021 03:58 22,5 C 21,1 C 19,5 C 77 % 1013,3 hPa 0,0 l/m 0 min 0 min 0 W/m 6,4 km/h (2 Bft) 95,74 %
19.06.2021 04:00 22,4 C 21,1 C 19,5 C 77 % 1013,3 hPa 0,0 l/m 0 min 0 min 0 W/m 6,4 km/h (2 Bft) 97,87 %
19.06.2021 04:02 22,4 C 21,7 C 19,5 C 78 % 1013,3 hPa 0,0 l/m 0 min 0 min 0 W/m 6,4 km/h (2 Bft) 100,00 %
19.06.2021 04:04 22,4 C 21,7 C 19,5 C 78 % 1013,2 hPa 0,0 l/m 0 min 0 min 0 W/m 12,9 km/h (3 Bft) 95,74 %
19.06.2021 04:06 22,4 C 21,1 C 19,5 C 78 % 1013,2 hPa 0,0 l/m 0 min 0 min 0 W/m 9,7 km/h (2 Bft) 97,83 %
19.06.2021 04:08 22,4 C 21,1 C 19,5 C 78 % 1013,2 hPa 0,0 l/m 0 min 0 min 0 W/m 6,4 km/h (2 Bft) 97,87 %
19.06.2021 04:10 22,4 C 21,1 C 19,5 C 78 % 1013,2 hPa 0,0 l/m 0 min 0 min 0 W/m 12,9 km/h (3 Bft) 97,14 %
19.06.2021 04:12 22,3 C 21,1 C 19,5 C 78 % 1013,1 hPa 0,0 l/m 0 min 0 min 0 W/m 19,3 km/h (3 Bft) 100,00 %
19.06.2021 04:14 22,3 C 21,1 C 19,5 C 78 % 1013,1 hPa 0,0 l/m 0 min 0 min 0 W/m 19,3 km/h (3 Bft) 97,87 %
19.06.2021 04:16 22,3 C 21,7 C 19,5 C 78 % 1013,1 hPa 0,0 l/m 0 min 0 min 0 W/m 19,3 km/h (3 Bft) 100,00 %
19.06.2021 04:18 22,3 C 21,1 C 19,5 C 78 % 1013,1 hPa 0,0 l/m 0 min 0 min 0 W/m 19,3 km/h (3 Bft) 100,00 %
19.06.2021 04:20 22,3 C 21,1 C 19,5 C 78 % 1013,2 hPa 0,0 l/m 0 min 0 min 0 W/m 6,4 km/h (2 Bft) 100,00 %
19.06.2021 04:22 22,3 C 21,1 C 19,5 C 78 % 1013,2 hPa 0,0 l/m 0 min 0 min 0 W/m 6,4 km/h (2 Bft) 97,87 %
19.06.2021 04:24 22,3 C 21,1 C 19,5 C 78 % 1013,2 hPa 0,0 l/m 0 min 0 min 0 W/m 12,9 km/h (3 Bft) 100,00 %
19.06.2021 04:26 22,3 C 21,1 C 19,5 C 78 % 1013,2 hPa 0,0 l/m 0 min 0 min 0 W/m 16,1 km/h (3 Bft) 97,87 %
19.06.2021 04:28 22,3 C 21,1 C 19,5 C 78 % 1013,1 hPa 0,0 l/m 0 min 0 min 0 W/m 12,9 km/h (3 Bft) 100,00 %
19.06.2021 04:30 22,2 C 21,1 C 19,5 C 78 % 1013,1 hPa 0,0 l/m 0 min 0 min 0 W/m 16,1 km/h (3 Bft) 100,00 %
19.06.2021 04:32 22,2 C 21,1 C 19,5 C 78 % 1013,1 hPa 0,0 l/m 0 min 0 min 0 W/m 9,7 km/h (2 Bft) 100,00 %
19.06.2021 04:34 22,2 C 21,1 C 19,5 C 78 % 1013,1 hPa 0,0 l/m 0 min 0 min 0 W/m 12,9 km/h (3 Bft) 97,87 %
19.06.2021 04:36 22,1 C 21,1 C 19,5 C 78 % 1013,3 hPa 0,0 l/m 0 min 0 min 0 W/m 12,9 km/h (3 Bft) 100,00 %
19.06.2021 04:38 22,1 C 21,1 C 19,5 C 78 % 1013,3 hPa 0,0 l/m 0 min 0 min 0 W/m 9,7 km/h (2 Bft) 100,00 %
19.06.2021 04:40 22,1 C 21,1 C 19,5 C 78 % 1013,4 hPa 0,0 l/m 0 min 0 min 0 W/m 12,9 km/h (3 Bft) 100,00 %
19.06.2021 04:42 22,0 C 21,1 C 19,5 C 78 % 1013,4 hPa 0,0 l/m 0 min 0 min 0 W/m 3,2 km/h (1 Bft) 100,00 %
19.06.2021 04:44 22,0 C 21,1 C 19,5 C 78 % 1013,4 hPa 0,0 l/m 0 min 0 min 0 W/m 16,1 km/h (3 Bft) 97,87 %
19.06.2021 04:46 22,0 C 21,1 C 19,5 C 78 % 1013,5 hPa 0,0 l/m 0 min 0 min 0 W/m 19,3 km/h (3 Bft) 100,00 %
19.06.2021 04:48 22,0 C 21,1 C 19,5 C 79 % 1013,4 hPa 0,0 l/m 0 min 0 min 0 W/m 3,2 km/h (1 Bft) 100,00 %
19.06.2021 04:50 22,0 C 21,1 C 19,5 C 79 % 1013,5 hPa 0,0 l/m 0 min 0 min 0 W/m 12,9 km/h (3 Bft) 100,00 %
19.06.2021 04:52 21,9 C 21,1 C 18,9 C 79 % 1013,6 hPa 0,0 l/m 0 min 0 min 0 W/m 12,9 km/h (3 Bft) 100,00 %
19.06.2021 04:54 21,9 C 21,1 C 18,9 C 79 % 1013,5 hPa 0,0 l/m 0 min 0 min 0 W/m 6,4 km/h (2 Bft) 97,83 %
19.06.2021 04:56 21,9 C 20,6 C 18,9 C 79 % 1013,5 hPa 0,0 l/m 0 min 0 min 0 W/m 9,7 km/h (2 Bft) 97,87 %
19.06.2021 04:58 21,8 C 20,6 C 18,9 C 79 % 1013,5 hPa 0,0 l/m 0 min 0 min 0 W/m 16,1 km/h (3 Bft) 97,87 %
19.06.2021 05:00 21,8 C 20,6 C 18,9 C 79 % 1013,5 hPa 0,0 l/m 0 min 0 min 0 W/m 3,2 km/h (1 Bft) 93,62 %
19.06.2021 05:02 21,8 C 20,6 C 18,9 C 79 % 1013,5 hPa 0,0 l/m 0 min 0 min 0 W/m 12,9 km/h (3 Bft) 95,74 %
19.06.2021 05:04 21,7 C 20,6 C 18,9 C 80 % 1013,5 hPa 0,0 l/m 0 min 0 min 0 W/m 9,7 km/h (2 Bft) 97,87 %
19.06.2021 05:06 21,7 C 20,6 C 18,9 C 80 % 1013,5 hPa 0,0 l/m 0 min 0 min 0 W/m 12,9 km/h (3 Bft) 97,83 %
19.06.2021 05:08 21,6 C 20,6 C 18,9 C 80 % 1013,5 hPa 0,0 l/m 0 min 0 min 0 W/m 6,4 km/h (2 Bft) 97,87 %
19.06.2021 05:10 21,6 C 20,6 C 18,9 C 80 % 1013,6 hPa 0,0 l/m 0 min 0 min 0 W/m 19,3 km/h (3 Bft) 97,14 %
19.06.2021 05:12 21,6 C 20,6 C 18,9 C 80 % 1013,6 hPa 0,0 l/m 0 min 0 min 0 W/m 12,9 km/h (3 Bft) 97,87 %
19.06.2021 05:14 21,6 C 20,6 C 18,9 C 80 % 1013,7 hPa 0,0 l/m 0 min 0 min 0 W/m 6,4 km/h (2 Bft) 97,87 %
19.06.2021 05:16 21,6 C 20,6 C 18,9 C 80 % 1013,7 hPa 0,0 l/m 0 min 0 min 0 W/m 12,9 km/h (3 Bft) 97,87 %
19.06.2021 05:18 21,6 C 20,6 C 18,9 C 80 % 1013,7 hPa 0,0 l/m 0 min 0 min 0 W/m 16,1 km/h (3 Bft) 97,87 %
19.06.2021 05:20 21,5 C 20,6 C 18,9 C 80 % 1013,7 hPa 0,0 l/m 0 min 0 min 5 W/m 12,9 km/h (3 Bft) 97,83 %
19.06.2021 05:22 21,5 C 20,6 C 18,9 C 80 % 1013,6 hPa 0,0 l/m 0 min 0 min 5 W/m 3,2 km/h (1 Bft) 97,87 %
19.06.2021 05:24 21,5 C 20,6 C 18,9 C 80 % 1013,6 hPa 0,0 l/m 0 min 0 min 5 W/m 3,2 km/h (1 Bft) 97,87 %
19.06.2021 05:26 21,5 C 20,6 C 18,9 C 80 % 1013,7 hPa 0,0 l/m 0 min 0 min 5 W/m 9,7 km/h (2 Bft) 97,87 %
19.06.2021 05:28 21,5 C 20,6 C 18,9 C 81 % 1013,6 hPa 0,0 l/m 0 min 0 min 5 W/m 19,3 km/h (3 Bft) 97,87 %
19.06.2021 05:30 21,4 C 20,6 C 18,9 C 81 % 1013,7 hPa 0,0 l/m 0 min 0 min 6 W/m 6,4 km/h (2 Bft) 97,87 %
19.06.2021 05:32 21,4 C 20,6 C 18,9 C 81 % 1013,8 hPa 0,0 l/m 0 min 0 min 7 W/m 12,9 km/h (3 Bft) 97,83 %
19.06.2021 05:34 21,4 C 20,6 C 18,9 C 81 % 1013,9 hPa 0,0 l/m 0 min 0 min 10 W/m 6,4 km/h (2 Bft) 97,87 %
19.06.2021 05:36 21,4 C 20,6 C 18,9 C 81 % 1013,9 hPa 0,0 l/m 0 min 0 min 11 W/m 6,4 km/h (2 Bft) 95,74 %
19.06.2021 05:38 21,4 C 20,6 C 18,9 C 81 % 1013,9 hPa 0,0 l/m 0 min 0 min 11 W/m 6,4 km/h (2 Bft) 97,87 %
19.06.2021 05:40 21,3 C 20,6 C 18,9 C 81 % 1013,9 hPa 0,0 l/m 0 min 0 min 11 W/m 6,4 km/h (2 Bft) 96,23 %
19.06.2021 05:42 21,3 C 20,6 C 18,9 C 82 % 1013,9 hPa 0,0 l/m 0 min 0 min 11 W/m 6,4 km/h (2 Bft) 97,83 %
19.06.2021 05:44 21,3 C 20,6 C 18,9 C 82 % 1014,0 hPa 0,0 l/m 0 min 0 min 11 W/m 3,2 km/h (1 Bft) 97,87 %
19.06.2021 05:46 21,3 C 20,6 C 18,4 C 82 % 1014,0 hPa 0,0 l/m 0 min 0 min 11 W/m 3,2 km/h (1 Bft) 100,00 %
19.06.2021 05:48 21,3 C 20,0 C 18,4 C 82 % 1014,0 hPa 0,0 l/m 0 min 0 min 11 W/m 6,4 km/h (2 Bft) 100,00 %
19.06.2021 05:50 21,3 C 20,0 C 18,4 C 82 % 1014,1 hPa 0,0 l/m 0 min 0 min 11 W/m 3,2 km/h (1 Bft) 100,00 %
19.06.2021 05:52 21,2 C 20,0 C 18,4 C 82 % 1014,1 hPa 0,0 l/m 0 min 0 min 11 W/m 9,7 km/h (2 Bft) 97,87 %
19.06.2021 05:54 21,2 C 20,0 C 18,4 C 82 % 1014,1 hPa 0,0 l/m 0 min 0 min 11 W/m 3,2 km/h (1 Bft) 100,00 %
19.06.2021 05:56 21,1 C 20,0 C 18,4 C 82 % 1014,2 hPa 0,0 l/m 0 min 0 min 10 W/m 12,9 km/h (3 Bft) 100,00 %
19.06.2021 05:58 21,1 C 20,0 C 18,4 C 82 % 1014,2 hPa 0,0 l/m 0 min 0 min 10 W/m 9,7 km/h (2 Bft) 100,00 %
19.06.2021 06:00 21,1 C 20,0 C 18,4 C 82 % 1014,2 hPa 0,0 l/m 0 min 0 min 11 W/m 6,4 km/h (2 Bft) 100,00 %
19.06.2021 06:02 21,0 C 20,0 C 18,4 C 82 % 1014,1 hPa 0,0 l/m 0 min 0 min 11 W/m 6,4 km/h (2 Bft) 100,00 %
19.06.2021 06:04 21,0 C 20,0 C 18,4 C 82 % 1014,2 hPa 0,0 l/m 0 min 0 min 12 W/m 6,4 km/h (2 Bft) 100,00 %
19.06.2021 06:08 21,0 C 20,0 C 18,4 C 83 % 1014,2 hPa 0,0 l/m 0 min 0 min 13 W/m 9,7 km/h (2 Bft) 100,00 %
19.06.2021 06:10 21,0 C 20,0 C 18,4 C 83 % 1014,2 hPa 0,0 l/m 0 min 0 min 14 W/m 9,7 km/h (2 Bft) 95,74 %
19.06.2021 06:12 21,0 C 20,0 C 18,4 C 83 % 1014,2 hPa 0,0 l/m 0 min 0 min 16 W/m 3,2 km/h (1 Bft) 97,56 %
19.06.2021 06:14 20,9 C 20,0 C 18,4 C 83 % 1014,3 hPa 0,0 l/m 0 min 0 min 16 W/m 3,2 km/h (1 Bft) 97,87 %
19.06.2021 06:16 20,9 C 20,0 C 18,4 C 83 % 1014,2 hPa 0,0 l/m 0 min 0 min 16 W/m 9,7 km/h (2 Bft) 97,87 %
19.06.2021 06:18 20,9 C 20,0 C 18,4 C 83 % 1014,2 hPa 0,0 l/m 0 min 0 min 18 W/m 16,1 km/h (3 Bft) 97,83 %
19.06.2021 06:20 20,9 C 20,0 C 18,4 C 83 % 1014,2 hPa 0,0 l/m 0 min 0 min 19 W/m 6,4 km/h (2 Bft) 97,87 %
19.06.2021 06:22 20,9 C 20,0 C 18,4 C 83 % 1014,2 hPa 0,0 l/m 0 min 0 min 19 W/m 3,2 km/h (1 Bft) 95,74 %
19.06.2021 06:24 20,9 C 20,0 C 18,4 C 83 % 1014,2 hPa 0,0 l/m 0 min 0 min 19 W/m 16,1 km/h (3 Bft) 97,87 %
19.06.2021 06:26 20,8 C 20,0 C 18,4 C 83 % 1014,2 hPa 0,0 l/m 0 min 0 min 19 W/m 6,4 km/h (2 Bft) 97,87 %
19.06.2021 06:28 20,8 C 20,0 C 18,4 C 83 % 1014,1 hPa 0,0 l/m 0 min 0 min 19 W/m 9,7 km/h (2 Bft) 95,74 %
19.06.2021 06:30 20,8 C 20,0 C 18,4 C 83 % 1014,1 hPa 0,0 l/m 0 min 0 min 19 W/m 12,9 km/h (3 Bft) 95,65 %
19.06.2021 06:32 20,8 C 20,0 C 18,4 C 83 % 1014,1 hPa 0,0 l/m 0 min 0 min 20 W/m 6,4 km/h (2 Bft) 96,23 %
19.06.2021 06:34 20,8 C 20,0 C 18,4 C 83 % 1014,2 hPa 0,0 l/m 0 min 0 min 21 W/m 16,1 km/h (3 Bft) 95,74 %
19.06.2021 06:36 20,8 C 20,0 C 18,4 C 83 % 1014,1 hPa 0,0 l/m 0 min 0 min 21 W/m 6,4 km/h (2 Bft) 93,62 %
19.06.2021 06:38 20,8 C 20,0 C 18,4 C 83 % 1014,2 hPa 0,0 l/m 0 min 0 min 21 W/m 6,4 km/h (2 Bft) 95,74 %
19.06.2021 06:40 20,8 C 20,0 C 18,4 C 83 % 1014,3 hPa 0,0 l/m 0 min 0 min 21 W/m 12,9 km/h (3 Bft) 95,92 %
19.06.2021 06:42 20,8 C 20,0 C 18,4 C 83 % 1014,3 hPa 0,0 l/m 0 min 0 min 22 W/m 16,1 km/h (3 Bft) 95,74 %
19.06.2021 06:44 20,8 C 20,0 C 18,4 C 83 % 1014,4 hPa 0,0 l/m 0 min 0 min 23 W/m 9,7 km/h (2 Bft) 95,74 %
19.06.2021 06:46 20,8 C 20,0 C 18,4 C 84 % 1014,4 hPa 0,0 l/m 0 min 0 min 23 W/m 6,4 km/h (2 Bft) 95,74 %
19.06.2021 06:48 20,8 C 20,0 C 18,4 C 84 % 1014,4 hPa 0,0 l/m 0 min 0 min 23 W/m 12,9 km/h (3 Bft) 95,74 %
19.06.2021 06:50 20,8 C 20,0 C 18,4 C 83 % 1014,4 hPa 0,0 l/m 0 min 0 min 24 W/m 12,9 km/h (3 Bft) 95,74 %
19.06.2021 06:52 20,9 C 20,0 C 18,4 C 83 % 1014,5 hPa 0,0 l/m 0 min 0 min 25 W/m 9,7 km/h (2 Bft) 89,13 %
19.06.2021 06:54 20,9 C 20,0 C 18,4 C 83 % 1014,5 hPa 0,0 l/m 0 min 0 min 26 W/m 12,9 km/h (3 Bft) 95,74 %
19.06.2021 06:56 20,9 C 20,0 C 18,4 C 83 % 1014,5 hPa 0,0 l/m 0 min 0 min 31 W/m 16,1 km/h (3 Bft) 95,74 %
19.06.2021 06:58 20,9 C 20,0 C 18,4 C 83 % 1014,5 hPa 0,0 l/m 0 min 0 min 40 W/m 16,1 km/h (3 Bft) 97,87 %
19.06.2021 07:00 20,9 C 20,0 C 18,4 C 83 % 1014,6 hPa 0,0 l/m 0 min 0 min 34 W/m 25,7 km/h (4 Bft) 97,87 %
19.06.2021 07:02 20,9 C 20,0 C 18,4 C 83 % 1014,6 hPa 0,0 l/m 0 min 0 min 31 W/m 19,3 km/h (3 Bft) 95,65 %
19.06.2021 07:04 20,9 C 20,0 C 18,4 C 83 % 1014,6 hPa 0,0 l/m 0 min 0 min 31 W/m 12,9 km/h (3 Bft) 95,74 %
19.06.2021 07:06 20,9 C 20,0 C 18,4 C 83 % 1014,6 hPa 0,0 l/m 0 min 0 min 29 W/m 12,9 km/h (3 Bft) 97,87 %
19.06.2021 07:08 20,9 C 20,0 C 18,4 C 83 % 1014,6 hPa 0,0 l/m 0 min 0 min 31 W/m 16,1 km/h (3 Bft) 97,87 %
19.06.2021 07:10 20,9 C 20,0 C 18,4 C 83 % 1014,7 hPa 0,0 l/m 0 min 0 min 34 W/m 19,3 km/h (3 Bft) 97,87 %
19.06.2021 07:12 20,9 C 20,0 C 18,4 C 83 % 1014,7 hPa 0,0 l/m 0 min 0 min 38 W/m 25,7 km/h (4 Bft) 93,62 %
19.06.2021 07:14 20,9 C 20,6 C 18,4 C 83 % 1014,7 hPa 0,0 l/m 0 min 0 min 40 W/m 12,9 km/h (3 Bft) 97,83 %
19.06.2021 07:16 20,9 C 20,6 C 18,9 C 83 % 1014,7 hPa 0,0 l/m 0 min 0 min 41 W/m 6,4 km/h (2 Bft) 97,87 %
19.06.2021 07:18 21,0 C 20,6 C 18,9 C 83 % 1014,7 hPa 0,0 l/m 0 min 0 min 47 W/m 12,9 km/h (3 Bft) 97,87 %
19.06.2021 07:20 21,0 C 20,6 C 18,9 C 83 % 1014,7 hPa 0,0 l/m 0 min 0 min 42 W/m 9,7 km/h (2 Bft) 97,87 %
19.06.2021 07:22 21,0 C 20,6 C 18,4 C 83 % 1014,7 hPa 0,0 l/m 0 min 0 min 48 W/m 19,3 km/h (3 Bft) 97,87 %
19.06.2021 07:24 21,0 C 20,6 C 18,4 C 82 % 1014,7 hPa 0,0 l/m 0 min 0 min 62 W/m 22,5 km/h (4 Bft) 95,74 %
19.06.2021 07:26 21,0 C 20,6 C 18,9 C 82 % 1014,7 hPa 0,0 l/m 0 min 0 min 67 W/m 6,4 km/h (2 Bft) 95,65 %
19.06.2021 07:28 21,0 C 20,6 C 18,9 C 83 % 1014,8 hPa 0,0 l/m 0 min 0 min 71 W/m 12,9 km/h (3 Bft) 97,87 %
19.06.2021 07:30 21,0 C 20,6 C 18,9 C 83 % 1014,8 hPa 0,0 l/m 0 min 0 min 90 W/m 12,9 km/h (3 Bft) 97,87 %
19.06.2021 07:32 21,1 C 20,6 C 18,9 C 82 % 1014,9 hPa 0,0 l/m 0 min 0 min 96 W/m 16,1 km/h (3 Bft) 97,87 %
19.06.2021 07:34 21,1 C 20,6 C 18,9 C 82 % 1014,9 hPa 0,0 l/m 0 min 0 min 98 W/m 16,1 km/h (3 Bft) 100,00 %
19.06.2021 07:36 21,1 C 20,6 C 18,9 C 82 % 1014,9 hPa 0,0 l/m 0 min 0 min 120 W/m 22,5 km/h (4 Bft) 100,00 %
19.06.2021 07:38 21,1 C 20,6 C 18,9 C 82 % 1014,9 hPa 0,0 l/m 0 min 0 min 107 W/m 22,5 km/h (4 Bft) 100,00 %
19.06.2021 07:40 21,1 C 20,6 C 18,9 C 82 % 1014,9 hPa 0,0 l/m 0 min 0 min 102 W/m 22,5 km/h (4 Bft) 96,00 %
19.06.2021 07:42 21,1 C 20,6 C 18,9 C 82 % 1014,9 hPa 0,0 l/m 0 min 0 min 101 W/m 22,5 km/h (4 Bft) 100,00 %
19.06.2021 07:44 21,1 C 20,6 C 18,9 C 82 % 1014,9 hPa 0,0 l/m 0 min 0 min 148 W/m 19,3 km/h (3 Bft) 97,87 %
19.06.2021 07:46 21,1 C 21,1 C 18,9 C 82 % 1014,9 hPa 0,0 l/m 2 min 0 min 304 W/m 12,9 km/h (3 Bft) 100,00 %
19.06.2021 07:48 21,1 C 21,1 C 18,9 C 82 % 1014,8 hPa 0,0 l/m 2 min 0 min 286 W/m 12,9 km/h (3 Bft) 97,83 %
19.06.2021 07:50 21,1 C 20,6 C 18,9 C 82 % 1014,8 hPa 0,0 l/m 0 min 0 min 166 W/m 22,5 km/h (4 Bft) 100,00 %
19.06.2021 07:52 21,1 C 20,6 C 18,9 C 82 % 1014,8 hPa 0,0 l/m 2 min 0 min 234 W/m 32,2 km/h (5 Bft) 100,00 %
19.06.2021 07:54 21,1 C 20,6 C 18,9 C 82 % 1014,8 hPa 0,0 l/m 2 min 0 min 311 W/m 16,1 km/h (3 Bft) 95,74 %
19.06.2021 07:56 21,1 C 20,6 C 18,9 C 82 % 1014,9 hPa 0,0 l/m 2 min 0 min 304 W/m 19,3 km/h (3 Bft) 97,87 %
19.06.2021 07:58 21,1 C 20,6 C 18,9 C 81 % 1014,9 hPa 0,0 l/m 2 min 0 min 334 W/m 19,3 km/h (3 Bft) 97,87 %
19.06.2021 08:00 21,1 C 20,6 C 18,9 C 81 % 1014,9 hPa 0,0 l/m 2 min 0 min 335 W/m 16,1 km/h (3 Bft) 97,83 %
19.06.2021 08:02 21,2 C 21,1 C 18,9 C 82 % 1014,9 hPa 0,0 l/m 2 min 0 min 342 W/m 25,7 km/h (4 Bft) 93,62 %
19.06.2021 08:04 21,3 C 21,1 C 18,9 C 82 % 1014,9 hPa 0,0 l/m 2 min 0 min 351 W/m 35,4 km/h (5 Bft) 97,87 %
19.06.2021 08:06 21,3 C 21,1 C 18,9 C 82 % 1014,9 hPa 0,0 l/m 2 min 0 min 361 W/m 6,4 km/h (2 Bft) 95,74 %
19.06.2021 08:08 21,4 C 21,7 C 18,9 C 82 % 1014,9 hPa 0,0 l/m 2 min 0 min 376 W/m 19,3 km/h (3 Bft) 95,74 %
19.06.2021 08:10 21,5 C 21,7 C 19,5 C 82 % 1015,0 hPa 0,0 l/m 2 min 0 min 407 W/m 12,9 km/h (3 Bft) 97,14 %
19.06.2021 08:12 21,5 C 21,7 C 19,5 C 81 % 1014,9 hPa 0,0 l/m 2 min 0 min 385 W/m 25,7 km/h (4 Bft) 97,87 %
19.06.2021 08:14 21,5 C 21,7 C 19,5 C 81 % 1015,0 hPa 0,0 l/m 2 min 0 min 385 W/m 22,5 km/h (4 Bft) 97,83 %
19.06.2021 08:16 21,6 C 22,2 C 19,5 C 81 % 1015,0 hPa 0,0 l/m 2 min 0 min 417 W/m 38,6 km/h (5 Bft) 97,87 %
19.06.2021 08:18 21,6 C 22,2 C 19,5 C 80 % 1015,0 hPa 0,0 l/m 2 min 0 min 414 W/m 29,0 km/h (5 Bft) 97,87 %
19.06.2021 08:20 21,6 C 22,2 C 19,5 C 80 % 1015,0 hPa 0,0 l/m 2 min 0 min 406 W/m 25,7 km/h (4 Bft) 97,87 %
19.06.2021 08:22 21,6 C 22,8 C 20,0 C 80 % 1015,0 hPa 0,0 l/m 2 min 0 min 412 W/m 19,3 km/h (3 Bft) 95,74 %
19.06.2021 08:24 21,6 C 23,3 C 20,6 C 80 % 1015,0 hPa 0,0 l/m 2 min 0 min 428 W/m 12,9 km/h (3 Bft) 95,74 %
19.06.2021 08:26 21,8 C 23,3 C 20,6 C 81 % 1015,1 hPa 0,0 l/m 2 min 0 min 425 W/m 6,4 km/h (2 Bft) 97,83 %
19.06.2021 08:28 21,8 C 23,3 C 20,6 C 80 % 1015,1 hPa 0,0 l/m 2 min 0 min 383 W/m 16,1 km/h (3 Bft) 95,74 %
19.06.2021 08:30 21,9 C 23,3 C 21,1 C 79 % 1015,1 hPa 0,0 l/m 2 min 0 min 408 W/m 16,1 km/h (3 Bft) 97,87 %
19.06.2021 08:32 21,9 C 23,3 C 21,1 C 79 % 1015,1 hPa 0,0 l/m 2 min 0 min 446 W/m 12,9 km/h (3 Bft) 97,87 %
19.06.2021 08:34 21,9 C 23,3 C 21,1 C 78 % 1015,1 hPa 0,0 l/m 2 min 0 min 410 W/m 19,3 km/h (3 Bft) 97,87 %
19.06.2021 08:36 22,0 C 23,3 C 21,1 C 78 % 1015,2 hPa 0,0 l/m 2 min 0 min 425 W/m 22,5 km/h (4 Bft) 97,87 %
19.06.2021 08:38 22,0 C 23,9 C 21,1 C 78 % 1015,1 hPa 0,0 l/m 2 min 0 min 441 W/m 29,0 km/h (5 Bft) 97,83 %
19.06.2021 08:40 22,0 C 23,9 C 21,7 C 78 % 1015,1 hPa 0,0 l/m 2 min 0 min 444 W/m 6,4 km/h (2 Bft) 98,21 %
19.06.2021 08:42 22,0 C 24,4 C 21,7 C 78 % 1015,2 hPa 0,0 l/m 2 min 0 min 448 W/m 6,4 km/h (2 Bft) 97,87 %
19.06.2021 08:44 22,1 C 24,4 C 21,7 C 78 % 1015,2 hPa 0,0 l/m 2 min 0 min 455 W/m 9,7 km/h (2 Bft) 97,87 %
19.06.2021 08:46 22,2 C 24,4 C 21,7 C 78 % 1015,2 hPa 0,0 l/m 2 min 0 min 453 W/m 16,1 km/h (3 Bft) 97,87 %
19.06.2021 08:48 22,3 C 24,4 C 21,7 C 77 % 1015,2 hPa 0,0 l/m 2 min 0 min 470 W/m 12,9 km/h (3 Bft) 95,65 %
19.06.2021 08:50 22,3 C 24,4 C 22,3 C 77 % 1015,2 hPa 0,0 l/m 2 min 0 min 472 W/m 19,3 km/h (3 Bft) 95,74 %
19.06.2021 08:52 22,3 C 25,0 C 22,3 C 77 % 1015,2 hPa 0,0 l/m 2 min 0 min 476 W/m 12,9 km/h (3 Bft) 92,00 %
19.06.2021 08:54 22,4 C 25,0 C 22,3 C 77 % 1015,2 hPa 0,0 l/m 2 min 0 min 478 W/m 12,9 km/h (3 Bft) 100,00 %
19.06.2021 08:56 22,5 C 25,0 C 22,8 C 76 % 1015,2 hPa 0,0 l/m 2 min 0 min 481 W/m 12,9 km/h (3 Bft) 91,07 %
19.06.2021 08:58 22,5 C 25,6 C 22,8 C 76 % 1015,2 hPa 0,0 l/m 2 min 0 min 483 W/m 16,1 km/h (3 Bft) 95,92 %
19.06.2021 09:00 22,5 C 26,1 C 22,8 C 76 % 1015,2 hPa 0,0 l/m 2 min 0 min 490 W/m 12,9 km/h (3 Bft) 94,87 %
19.06.2021 09:02 22,6 C 25,6 C 22,8 C 76 % 1015,3 hPa 0,0 l/m 2 min 0 min 496 W/m 6,4 km/h (2 Bft) 97,96 %
19.06.2021 09:04 22,7 C 25,6 C 22,8 C 75 % 1015,2 hPa 0,0 l/m 2 min 0 min 506 W/m 29,0 km/h (5 Bft) 96,00 %
19.06.2021 09:06 22,7 C 25,6 C 22,8 C 75 % 1015,3 hPa 0,0 l/m 2 min 0 min 516 W/m 25,7 km/h (4 Bft) 93,62 %
19.06.2021 09:08 22,8 C 26,1 C 23,4 C 76 % 1015,2 hPa 0,0 l/m 2 min 0 min 518 W/m 29,0 km/h (5 Bft) 97,73 %
19.06.2021 09:10 22,7 C 26,1 C 23,4 C 75 % 1015,2 hPa 0,0 l/m 2 min 0 min 526 W/m 16,1 km/h (3 Bft) 93,75 %
19.06.2021 09:12 22,7 C 26,7 C 23,4 C 76 % 1015,1 hPa 0,0 l/m 2 min 0 min 533 W/m 12,9 km/h (3 Bft) 91,67 %
19.06.2021 09:14 22,9 C 27,8 C 23,9 C 76 % 1015,1 hPa 0,0 l/m 2 min 0 min 535 W/m 6,4 km/h (2 Bft) 91,49 %
19.06.2021 09:16 23,1 C 28,3 C 24,5 C 75 % 1015,2 hPa 0,0 l/m 2 min 0 min 539 W/m 12,9 km/h (3 Bft) 96,30 %
19.06.2021 09:18 23,3 C 28,3 C 24,5 C 74 % 1015,2 hPa 0,0 l/m 2 min 0 min 546 W/m 16,1 km/h (3 Bft) 97,37 %
19.06.2021 09:20 23,4 C 28,9 C 24,5 C 74 % 1015,2 hPa 0,0 l/m 2 min 0 min 550 W/m 12,9 km/h (3 Bft) 97,96 %
19.06.2021 09:22 23,6 C 28,9 C 24,5 C 74 % 1015,2 hPa 0,0 l/m 2 min 0 min 554 W/m 9,7 km/h (2 Bft) 95,65 %
19.06.2021 09:24 23,7 C 29,4 C 25,0 C 73 % 1015,2 hPa 0,0 l/m 2 min 0 min 564 W/m 12,9 km/h (3 Bft) 97,87 %
19.06.2021 09:26 23,8 C 29,4 C 25,0 C 73 % 1015,2 hPa 0,0 l/m 2 min 0 min 569 W/m 12,9 km/h (3 Bft) 94,44 %
19.06.2021 09:28 23,9 C 29,4 C 25,6 C 73 % 1015,2 hPa 0,0 l/m 2 min 0 min 573 W/m 12,9 km/h (3 Bft) 100,00 %
19.06.2021 09:30 24,0 C 29,4 C 25,6 C 73 % 1015,2 hPa 0,0 l/m 2 min 0 min 580 W/m 6,4 km/h (2 Bft) 97,96 %
19.06.2021 09:32 24,1 C 29,4 C 26,1 C 72 % 1015,2 hPa 0,0 l/m 2 min 0 min 585 W/m 12,9 km/h (3 Bft) 100,00 %
19.06.2021 09:34 24,2 C 30,0 C 26,1 C 71 % 1015,2 hPa 0,0 l/m 2 min 0 min 592 W/m 12,9 km/h (3 Bft) 100,00 %
19.06.2021 09:36 24,3 C 30,0 C 26,7 C 71 % 1015,2 hPa 0,0 l/m 2 min 0 min 592 W/m 12,9 km/h (3 Bft) 97,87 %
19.06.2021 09:38 24,4 C 30,0 C 26,7 C 71 % 1015,1 hPa 0,0 l/m 2 min 0 min 597 W/m 9,7 km/h (2 Bft) 100,00 %
19.06.2021 09:40 24,5 C 30,0 C 27,3 C 71 % 1015,1 hPa 0,0 l/m 2 min 0 min 598 W/m 12,9 km/h (3 Bft) 100,00 %
19.06.2021 09:42 24,5 C 28,9 C 26,7 C 69 % 1015,2 hPa 0,0 l/m 2 min 0 min 607 W/m 19,3 km/h (3 Bft) 97,37 %
19.06.2021 09:44 24,3 C 28,9 C 26,7 C 70 % 1015,2 hPa 0,0 l/m 2 min 0 min 609 W/m 16,1 km/h (3 Bft) 97,96 %
19.06.2021 09:46 24,4 C 28,3 C 26,7 C 70 % 1015,1 hPa 0,0 l/m 2 min 0 min 616 W/m 9,7 km/h (2 Bft) 95,65 %
19.06.2021 09:48 24,5 C 28,9 C 27,3 C 70 % 1015,1 hPa 0,0 l/m 2 min 0 min 616 W/m 9,7 km/h (2 Bft) 100,00 %
19.06.2021 09:50 24,5 C 29,4 C 27,8 C 70 % 1015,1 hPa 0,0 l/m 2 min 0 min 627 W/m 16,1 km/h (3 Bft) 100,00 %
19.06.2021 09:52 24,5 C 28,9 C 27,8 C 69 % 1015,1 hPa 0,0 l/m 2 min 0 min 634 W/m 12,9 km/h (3 Bft) 96,30 %
19.06.2021 09:54 24,6 C 28,9 C 27,8 C 69 % 1015,0 hPa 0,0 l/m 2 min 0 min 641 W/m 22,5 km/h (4 Bft) 100,00 %
19.06.2021 09:56 24,5 C 28,9 C 28,4 C 69 % 1015,1 hPa 0,0 l/m 2 min 0 min 646 W/m 12,9 km/h (3 Bft) 97,96 %
19.06.2021 09:58 24,6 C 28,3 C 28,4 C 69 % 1015,0 hPa 0,0 l/m 2 min 0 min 650 W/m 19,3 km/h (3 Bft) 97,96 %
19.06.2021 10:00 24,6 C 28,9 C 28,9 C 70 % 1015,0 hPa 0,0 l/m 2 min 0 min 656 W/m 9,7 km/h (2 Bft) 97,87 %
19.06.2021 10:02 24,8 C 28,9 C 28,9 C 69 % 1015,0 hPa 0,0 l/m 2 min 0 min 658 W/m 6,4 km/h (2 Bft) 97,37 %
19.06.2021 10:04 25,0 C 29,4 C 29,5 C 69 % 1015,0 hPa 0,0 l/m 2 min 0 min 664 W/m 9,7 km/h (2 Bft) 96,00 %
19.06.2021 10:06 25,1 C 29,4 C 29,5 C 68 % 1015,0 hPa 0,0 l/m 2 min 0 min 672 W/m 6,4 km/h (2 Bft) 98,15 %
19.06.2021 10:08 25,3 C 28,9 C 29,5 C 67 % 1015,0 hPa 0,0 l/m 2 min 0 min 675 W/m 16,1 km/h (3 Bft) 97,96 %
19.06.2021 10:10 25,3 C 28,3 C 29,5 C 66 % 1014,9 hPa 0,0 l/m 2 min 0 min 676 W/m 6,4 km/h (2 Bft) 97,87 %
19.06.2021 10:12 25,4 C 27,8 C 29,5 C 66 % 1014,9 hPa 0,0 l/m 2 min 0 min 678 W/m 9,7 km/h (2 Bft) 97,30 %
19.06.2021 10:14 25,4 C 27,8 C 28,9 C 66 % 1014,9 hPa 0,0 l/m 2 min 0 min 681 W/m 6,4 km/h (2 Bft) 97,87 %
19.06.2021 10:16 25,5 C 28,3 C 29,5 C 66 % 1014,9 hPa 0,0 l/m 2 min 0 min 683 W/m 12,9 km/h (3 Bft) 94,44 %
19.06.2021 10:18 25,5 C 28,9 C 30,0 C 67 % 1014,9 hPa 0,0 l/m 2 min 0 min 687 W/m 6,4 km/h (2 Bft) 97,87 %
19.06.2021 10:20 25,7 C 29,4 C 30,6 C 67 % 1014,9 hPa 0,0 l/m 2 min 0 min 690 W/m 19,3 km/h (3 Bft) 95,92 %
19.06.2021 10:22 25,6 C 28,9 C 30,6 C 66 % 1014,9 hPa 0,0 l/m 2 min 0 min 690 W/m 16,1 km/h (3 Bft) 100,00 %
19.06.2021 10:24 25,7 C 29,4 C 31,1 C 67 % 1015,0 hPa 0,0 l/m 2 min 0 min 688 W/m 6,4 km/h (2 Bft) 95,74 %
19.06.2021 10:26 25,8 C 28,9 C 30,6 C 66 % 1015,0 hPa 0,0 l/m 2 min 0 min 688 W/m 9,7 km/h (2 Bft) 98,15 %
19.06.2021 10:28 25,8 C 28,9 C 31,1 C 66 % 1014,9 hPa 0,0 l/m 2 min 0 min 686 W/m 12,9 km/h (3 Bft) 98,00 %
19.06.2021 10:30 25,8 C 28,3 C 31,1 C 66 % 1015,0 hPa 0,0 l/m 2 min 0 min 702 W/m 6,4 km/h (2 Bft) 97,30 %
19.06.2021 10:32 25,8 C 27,8 C 30,6 C 66 % 1015,0 hPa 0,0 l/m 2 min 0 min 703 W/m 6,4 km/h (2 Bft) 97,87 %
19.06.2021 10:34 25,9 C 27,8 C 30,6 C 65 % 1015,0 hPa 0,0 l/m 2 min 0 min 702 W/m 6,4 km/h (2 Bft) 98,11 %
19.06.2021 10:36 25,9 C 27,8 C 31,1 C 65 % 1015,0 hPa 0,0 l/m 2 min 0 min 709 W/m 3,2 km/h (1 Bft) 98,00 %
19.06.2021 10:38 26,0 C 27,8 C 31,7 C 65 % 1015,0 hPa 0,0 l/m 2 min 0 min 713 W/m 12,9 km/h (3 Bft) 97,30 %
19.06.2021 10:40 26,0 C 28,3 C 32,3 C 66 % 1014,9 hPa 0,0 l/m 2 min 0 min 709 W/m 12,9 km/h (3 Bft) 97,87 %
19.06.2021 10:42 26,1 C 28,3 C 32,3 C 66 % 1015,0 hPa 0,0 l/m 2 min 0 min 723 W/m 6,4 km/h (2 Bft) 95,74 %
19.06.2021 10:44 26,2 C 28,3 C 32,3 C 66 % 1014,9 hPa 0,0 l/m 2 min 0 min 733 W/m 16,1 km/h (3 Bft) 98,11 %
19.06.2021 10:46 26,1 C 27,8 C 31,7 C 65 % 1014,9 hPa 0,0 l/m 2 min 0 min 735 W/m 9,7 km/h (2 Bft) 100,00 %
19.06.2021 10:48 26,1 C 27,2 C 31,1 C 65 % 1014,9 hPa 0,0 l/m 2 min 0 min 725 W/m 12,9 km/h (3 Bft) 100,00 %
19.06.2021 10:50 26,0 C 27,8 C 31,7 C 65 % 1014,9 hPa 0,0 l/m 2 min 0 min 726 W/m 6,4 km/h (2 Bft) 100,00 %
19.06.2021 10:52 26,0 C 27,2 C 31,1 C 65 % 1014,9 hPa 0,0 l/m 2 min 0 min 731 W/m 9,7 km/h (2 Bft) 100,00 %
19.06.2021 10:54 26,0 C 27,8 C 31,7 C 66 % 1014,8 hPa 0,0 l/m 2 min 0 min 739 W/m 6,4 km/h (2 Bft) 97,96 %
19.06.2021 10:56 26,0 C 27,8 C 32,3 C 66 % 1014,8 hPa 0,0 l/m 2 min 0 min 749 W/m 6,4 km/h (2 Bft) 100,00 %
19.06.2021 10:58 26,1 C 28,3 C 32,3 C 66 % 1014,9 hPa 0,0 l/m 2 min 0 min 766 W/m 6,4 km/h (2 Bft) 98,00 %
19.06.2021 11:00 26,3 C 28,9 C 32,3 C 66 % 1014,8 hPa 0,0 l/m 2 min 0 min 776 W/m 6,4 km/h (2 Bft) 97,87 %
19.06.2021 11:02 26,4 C 28,9 C 31,1 C 65 % 1014,8 hPa 0,0 l/m 2 min 0 min 792 W/m 6,4 km/h (2 Bft) 98,00 %
19.06.2021 11:04 26,5 C 28,9 C 30,6 C 65 % 1014,8 hPa 0,0 l/m 2 min 0 min 787 W/m 9,7 km/h (2 Bft) 96,00 %
19.06.2021 11:06 26,7 C 28,9 C 30,6 C 65 % 1014,8 hPa 0,0 l/m 2 min 0 min 776 W/m 3,2 km/h (1 Bft) 100,00 %
19.06.2021 11:08 26,8 C 28,9 C 31,1 C 64 % 1014,8 hPa 0,0 l/m 2 min 0 min 751 W/m 16,1 km/h (3 Bft) 100,00 %
19.06.2021 11:10 26,8 C 28,9 C 31,1 C 64 % 1014,7 hPa 0,0 l/m 2 min 0 min 739 W/m 9,7 km/h (2 Bft) 97,83 %
19.06.2021 11:12 26,8 C 29,4 C 30,6 C 64 % 1014,7 hPa 0,0 l/m 2 min 0 min 767 W/m 6,4 km/h (2 Bft) 98,15 %
19.06.2021 11:14 26,8 C 29,4 C 29,5 C 63 % 1014,7 hPa 0,0 l/m 2 min 0 min 797 W/m 16,1 km/h (3 Bft) 100,00 %
19.06.2021 11:16 26,8 C 29,4 C 28,4 C 63 % 1014,8 hPa 0,0 l/m 2 min 0 min 801 W/m 16,1 km/h (3 Bft) 100,00 %
19.06.2021 11:18 26,6 C 28,3 C 27,3 C 62 % 1014,8 hPa 0,0 l/m 2 min 0 min 805 W/m 12,9 km/h (3 Bft) 100,00 %
19.06.2021 11:20 26,6 C 28,3 C 26,7 C 62 % 1014,7 hPa 0,0 l/m 2 min 0 min 808 W/m 6,4 km/h (2 Bft) 100,00 %
19.06.2021 11:22 26,6 C 28,3 C 26,7 C 63 % 1014,7 hPa 0,0 l/m 2 min 0 min 814 W/m 12,9 km/h (3 Bft) 97,14 %
19.06.2021 11:24 26,6 C 28,9 C 26,7 C 63 % 1014,7 hPa 0,0 l/m 2 min 0 min 824 W/m 12,9 km/h (3 Bft) 96,30 %
19.06.2021 11:26 26,7 C 28,9 C 28,4 C 63 % 1014,7 hPa 0,0 l/m 2 min 0 min 828 W/m 22,5 km/h (4 Bft) 94,00 %
19.06.2021 11:28 26,6 C 28,9 C 28,4 C 63 % 1014,7 hPa 0,0 l/m 2 min 0 min 821 W/m 22,5 km/h (4 Bft) 93,62 %
19.06.2021 11:30 26,5 C 28,9 C 28,4 C 63 % 1014,6 hPa 0,0 l/m 2 min 0 min 832 W/m 16,1 km/h (3 Bft) 95,65 %
19.06.2021 11:32 26,5 C 29,4 C 27,8 C 64 % 1014,6 hPa 0,0 l/m 2 min 0 min 836 W/m 9,7 km/h (2 Bft) 95,74 %
19.06.2021 11:34 26,6 C 29,4 C 27,3 C 63 % 1014,6 hPa 0,0 l/m 2 min 0 min 837 W/m 12,9 km/h (3 Bft) 93,88 %
19.06.2021 11:36 26,7 C 29,4 C 26,7 C 63 % 1014,6 hPa 0,0 l/m 2 min 0 min 841 W/m 6,4 km/h (2 Bft) 97,14 %
19.06.2021 11:38 26,8 C 30,0 C 26,7 C 63 % 1014,5 hPa 0,0 l/m 2 min 0 min 845 W/m 6,4 km/h (2 Bft) 94,44 %
19.06.2021 11:40 26,9 C 29,4 C 27,3 C 62 % 1014,4 hPa 0,0 l/m 2 min 0 min 846 W/m 16,1 km/h (3 Bft) 95,74 %
19.06.2021 11:42 26,9 C 29,4 C 27,3 C 62 % 1014,4 hPa 0,0 l/m 2 min 0 min 853 W/m 6,4 km/h (2 Bft) 95,92 %
19.06.2021 11:44 26,9 C 28,9 C 28,9 C 62 % 1014,4 hPa 0,0 l/m 2 min 0 min 861 W/m 6,4 km/h (2 Bft) 91,84 %
19.06.2021 11:46 26,9 C 29,4 C 30,0 C 62 % 1014,4 hPa 0,0 l/m 2 min 0 min 869 W/m 9,7 km/h (2 Bft) 97,14 %
19.06.2021 11:48 27,0 C 30,0 C 29,5 C 62 % 1014,5 hPa 0,0 l/m 2 min 0 min 855 W/m 6,4 km/h (2 Bft) 95,74 %
19.06.2021 11:50 27,1 C 30,0 C 29,5 C 63 % 1014,5 hPa 0,0 l/m 2 min 0 min 867 W/m 9,7 km/h (2 Bft) 94,44 %
19.06.2021 11:52 27,3 C 30,0 C 28,4 C 62 % 1014,4 hPa 0,0 l/m 2 min 0 min 863 W/m 12,9 km/h (3 Bft) 95,92 %
19.06.2021 11:54 27,3 C 29,4 C 28,4 C 62 % 1014,4 hPa 0,0 l/m 2 min 0 min 869 W/m 12,9 km/h (3 Bft) 95,92 %
19.06.2021 11:56 27,3 C 29,4 C 28,9 C 63 % 1014,4 hPa 0,0 l/m 2 min 0 min 863 W/m 12,9 km/h (3 Bft) 94,29 %
19.06.2021 11:58 27,4 C 29,4 C 29,5 C 63 % 1014,4 hPa 0,0 l/m 2 min 0 min 866 W/m 6,4 km/h (2 Bft) 96,00 %
19.06.2021 12:00 27,5 C 29,4 C 29,5 C 63 % 1014,4 hPa 0,0 l/m 2 min 0 min 873 W/m 6,4 km/h (2 Bft) 96,30 %
19.06.2021 12:02 27,6 C 30,0 C 28,9 C 62 % 1014,4 hPa 0,0 l/m 2 min 0 min 877 W/m 3,2 km/h (1 Bft) 92,00 %
19.06.2021 12:04 27,8 C 29,4 C 28,4 C 61 % 1014,4 hPa 0,0 l/m 2 min 0 min 878 W/m 19,3 km/h (3 Bft) 97,37 %
19.06.2021 12:08 27,7 C 30,0 C 28,9 C 61 % 1014,4 hPa 0,0 l/m 4 min 0 min 874 W/m 16,1 km/h (3 Bft) 95,70 %
19.06.2021 12:10 27,8 C 30,0 C 28,9 C 62 % 1014,4 hPa 0,0 l/m 2 min 0 min 881 W/m 9,7 km/h (2 Bft) 100,00 %
19.06.2021 12:12 27,9 C 30,0 C 30,6 C 61 % 1014,4 hPa 0,0 l/m 2 min 0 min 885 W/m 12,9 km/h (3 Bft) 100,00 %
19.06.2021 12:14 27,9 C 30,0 C 32,8 C 60 % 1014,5 hPa 0,0 l/m 2 min 0 min 890 W/m 12,9 km/h (3 Bft) 100,00 %
19.06.2021 12:16 28,0 C 30,0 C 34,5 C 59 % 1014,5 hPa 0,0 l/m 2 min 0 min 892 W/m 12,9 km/h (3 Bft) 100,00 %
19.06.2021 12:18 28,0 C 30,0 C 35,6 C 60 % 1014,5 hPa 0,0 l/m 2 min 0 min 895 W/m 12,9 km/h (3 Bft) 97,96 %
19.06.2021 12:20 28,0 C 29,4 C 36,1 C 60 % 1014,5 hPa 0,0 l/m 2 min 0 min 886 W/m 12,9 km/h (3 Bft) 100,00 %
19.06.2021 12:22 28,0 C 29,4 C 36,7 C 59 % 1014,4 hPa 0,0 l/m 2 min 0 min 889 W/m 16,1 km/h (3 Bft) 100,00 %
19.06.2021 12:24 28,1 C 29,4 C 37,3 C 60 % 1014,5 hPa 0,0 l/m 2 min 0 min 879 W/m 12,9 km/h (3 Bft) 100,00 %
19.06.2021 12:26 28,1 C 30,0 C 37,8 C 60 % 1014,4 hPa 0,0 l/m 2 min 0 min 881 W/m 9,7 km/h (2 Bft) 100,00 %
19.06.2021 12:28 28,1 C 29,4 C 37,3 C 60 % 1014,4 hPa 0,0 l/m 2 min 0 min 880 W/m 12,9 km/h (3 Bft) 100,00 %
19.06.2021 12:30 28,1 C 29,4 C 37,3 C 59 % 1014,4 hPa 0,0 l/m 2 min 0 min 907 W/m 16,1 km/h (3 Bft) 100,00 %
19.06.2021 12:32 28,1 C 29,4 C 37,3 C 59 % 1014,4 hPa 0,0 l/m 2 min 0 min 914 W/m 12,9 km/h (3 Bft) 100,00 %
19.06.2021 12:34 28,2 C 29,4 C 37,3 C 60 % 1014,3 hPa 0,0 l/m 2 min 0 min 917 W/m 12,9 km/h (3 Bft) 100,00 %
19.06.2021 12:36 28,1 C 29,4 C 37,3 C 59 % 1014,3 hPa 0,0 l/m 2 min 0 min 922 W/m 12,9 km/h (3 Bft) 100,00 %
19.06.2021 12:38 28,2 C 30,0 C 38,4 C 60 % 1014,3 hPa 0,0 l/m 2 min 0 min 888 W/m 12,9 km/h (3 Bft) 97,87 %
19.06.2021 12:40 28,3 C 29,4 C 37,8 C 59 % 1014,2 hPa 0,0 l/m 2 min 0 min 867 W/m 12,9 km/h (3 Bft) 100,00 %
19.06.2021 12:42 28,3 C 30,0 C 38,4 C 60 % 1014,2 hPa 0,0 l/m 2 min 0 min 885 W/m 6,4 km/h (2 Bft) 100,00 %
19.06.2021 12:44 28,4 C 30,0 C 39,5 C 60 % 1014,1 hPa 0,0 l/m 2 min 0 min 889 W/m 6,4 km/h (2 Bft) 100,00 %
19.06.2021 12:46 28,5 C 30,0 C 38,9 C 59 % 1014,1 hPa 0,0 l/m 2 min 0 min 890 W/m 6,4 km/h (2 Bft) 97,87 %
19.06.2021 12:48 28,5 C 29,4 C 38,4 C 58 % 1014,0 hPa 0,0 l/m 2 min 0 min 909 W/m 6,4 km/h (2 Bft) 100,00 %
19.06.2021 12:50 28,6 C 30,0 C 37,3 C 60 % 1013,9 hPa 0,0 l/m 2 min 0 min 869 W/m 12,9 km/h (3 Bft) 100,00 %
19.06.2021 12:52 28,6 C 29,4 C 37,3 C 60 % 1014,0 hPa 0,0 l/m 2 min 0 min 889 W/m 9,7 km/h (2 Bft) 100,00 %
19.06.2021 12:54 28,6 C 30,0 C 37,3 C 59 % 1014,0 hPa 0,0 l/m 2 min 0 min 824 W/m 16,1 km/h (3 Bft) 100,00 %
19.06.2021 12:56 28,8 C 29,4 C 36,7 C 58 % 1014,0 hPa 0,0 l/m 2 min 0 min 807 W/m 9,7 km/h (2 Bft) 100,00 %
19.06.2021 12:58 28,8 C 30,0 C 37,8 C 58 % 1014,0 hPa 0,0 l/m 2 min 0 min 826 W/m 6,4 km/h (2 Bft) 100,00 %
19.06.2021 13:00 28,9 C 30,0 C 38,4 C 59 % 1014,0 hPa 0,0 l/m 2 min 0 min 912 W/m 6,4 km/h (2 Bft) 100,00 %
19.06.2021 13:02 28,8 C 30,0 C 38,4 C 59 % 1014,0 hPa 0,0 l/m 2 min 0 min 859 W/m 12,9 km/h (3 Bft) 98,00 %
19.06.2021 13:04 28,8 C 30,0 C 37,8 C 60 % 1013,9 hPa 0,0 l/m 2 min 0 min 811 W/m 12,9 km/h (3 Bft) 93,88 %
19.06.2021 13:06 28,9 C 30,6 C 38,4 C 60 % 1013,9 hPa 0,0 l/m 2 min 0 min 877 W/m 16,1 km/h (3 Bft) 98,15 %
19.06.2021 13:08 28,9 C 30,0 C 38,4 C 59 % 1013,9 hPa 0,0 l/m 2 min 0 min 910 W/m 9,7 km/h (2 Bft) 97,37 %
19.06.2021 13:10 28,9 C 29,4 C 37,8 C 59 % 1013,8 hPa 0,0 l/m 2 min 0 min 884 W/m 9,7 km/h (2 Bft) 95,74 %
19.06.2021 13:12 28,9 C 29,4 C 36,7 C 59 % 1013,8 hPa 0,0 l/m 2 min 0 min 876 W/m 12,9 km/h (3 Bft) 97,87 %
19.06.2021 13:14 29,0 C 30,0 C 37,3 C 59 % 1013,8 hPa 0,0 l/m 2 min 0 min 810 W/m 12,9 km/h (3 Bft) 97,96 %
19.06.2021 13:16 29,0 C 29,4 C 36,7 C 59 % 1013,8 hPa 0,0 l/m 2 min 0 min 856 W/m 12,9 km/h (3 Bft) 95,65 %
19.06.2021 13:18 29,0 C 29,4 C 36,7 C 58 % 1013,8 hPa 0,0 l/m 2 min 0 min 1004 W/m 12,9 km/h (3 Bft) 98,15 %
19.06.2021 13:20 29,0 C 30,0 C 36,7 C 59 % 1013,9 hPa 0,0 l/m 2 min 0 min 894 W/m 6,4 km/h (2 Bft) 97,37 %
19.06.2021 13:22 29,1 C 30,0 C 36,1 C 59 % 1013,9 hPa 0,0 l/m 2 min 0 min 842 W/m 29,0 km/h (5 Bft) 97,96 %
19.06.2021 13:24 29,1 C 30,0 C 35,6 C 59 % 1013,8 hPa 0,0 l/m 2 min 0 min 700 W/m 16,1 km/h (3 Bft) 97,87 %
19.06.2021 13:26 29,1 C 30,0 C 36,1 C 59 % 1013,9 hPa 0,0 l/m 2 min 0 min 756 W/m 16,1 km/h (3 Bft) 98,11 %
19.06.2021 13:28 29,1 C 30,0 C 35,6 C 58 % 1013,9 hPa 0,0 l/m 2 min 0 min 811 W/m 3,2 km/h (1 Bft) 97,37 %
19.06.2021 13:30 29,2 C 30,6 C 36,1 C 59 % 1013,9 hPa 0,0 l/m 2 min 0 min 755 W/m 6,4 km/h (2 Bft) 97,96 %
19.06.2021 13:32 29,2 C 30,6 C 37,3 C 58 % 1013,8 hPa 0,0 l/m 2 min 0 min 980 W/m 9,7 km/h (2 Bft) 97,87 %
19.06.2021 13:34 29,3 C 30,6 C 36,7 C 58 % 1013,8 hPa 0,0 l/m 2 min 0 min 979 W/m 12,9 km/h (3 Bft) 98,15 %
19.06.2021 13:36 29,3 C 30,6 C 36,7 C 58 % 1013,7 hPa 0,0 l/m 2 min 0 min 797 W/m 9,7 km/h (2 Bft) 97,37 %
19.06.2021 13:38 29,4 C 30,0 C 35,6 C 58 % 1013,7 hPa 0,0 l/m 2 min 0 min 739 W/m 9,7 km/h (2 Bft) 97,87 %
19.06.2021 13:40 29,4 C 30,0 C 34,5 C 58 % 1013,7 hPa 0,0 l/m 2 min 0 min 683 W/m 6,4 km/h (2 Bft) 97,83 %
19.06.2021 13:42 29,3 C 30,0 C 34,5 C 58 % 1013,7 hPa 0,0 l/m 2 min 0 min 736 W/m 9,7 km/h (2 Bft) 97,96 %
19.06.2021 13:44 29,2 C 29,4 C 32,8 C 58 % 1013,7 hPa 0,0 l/m 2 min 0 min 570 W/m 6,4 km/h (2 Bft) 97,87 %
19.06.2021 13:46 29,2 C 30,0 C 32,8 C 58 % 1013,7 hPa 0,0 l/m 2 min 0 min 685 W/m 9,7 km/h (2 Bft) 95,74 %
19.06.2021 13:48 29,3 C 30,6 C 33,4 C 58 % 1013,6 hPa 0,0 l/m 2 min 0 min 775 W/m 9,7 km/h (2 Bft) 94,34 %
19.06.2021 13:50 29,4 C 31,1 C 35,6 C 58 % 1013,6 hPa 0,0 l/m 2 min 0 min 934 W/m 3,2 km/h (1 Bft) 97,87 %
19.06.2021 13:52 29,4 C 31,7 C 37,3 C 58 % 1013,6 hPa 0,0 l/m 2 min 0 min 1038 W/m 12,9 km/h (3 Bft) 94,74 %
19.06.2021 13:54 29,5 C 31,7 C 35,6 C 57 % 1013,5 hPa 0,0 l/m 2 min 0 min 949 W/m 9,7 km/h (2 Bft) 97,96 %
19.06.2021 13:56 29,5 C 31,7 C 33,9 C 58 % 1013,5 hPa 0,0 l/m 2 min 0 min 998 W/m 9,7 km/h (2 Bft) 97,87 %
19.06.2021 13:58 29,5 C 30,6 C 32,8 C 57 % 1013,5 hPa 0,0 l/m 2 min 0 min 1027 W/m 6,4 km/h (2 Bft) 98,00 %
19.06.2021 14:00 29,6 C 31,7 C 31,7 C 58 % 1013,4 hPa 0,0 l/m 2 min 0 min 838 W/m 6,4 km/h (2 Bft) 95,24 %
19.06.2021 14:02 29,7 C 32,2 C 31,7 C 58 % 1013,4 hPa 0,0 l/m 2 min 0 min 847 W/m 16,1 km/h (3 Bft) 95,92 %
19.06.2021 14:04 29,8 C 31,7 C 30,6 C 58 % 1013,4 hPa 0,0 l/m 2 min 0 min 508 W/m 12,9 km/h (3 Bft) 93,02 %
19.06.2021 14:06 29,8 C 30,6 C 29,5 C 57 % 1013,4 hPa 0,0 l/m 2 min 0 min 707 W/m 12,9 km/h (3 Bft) 94,44 %
19.06.2021 14:08 29,6 C 29,4 C 28,9 C 57 % 1013,4 hPa 0,0 l/m 2 min 0 min 466 W/m 6,4 km/h (2 Bft) 94,00 %
19.06.2021 14:10 29,5 C 30,0 C 28,4 C 58 % 1013,4 hPa 0,0 l/m 2 min 0 min 684 W/m 6,4 km/h (2 Bft) 95,74 %
19.06.2021 14:12 29,5 C 31,1 C 28,4 C 59 % 1013,4 hPa 0,0 l/m 2 min 0 min 1090 W/m 19,3 km/h (3 Bft) 94,59 %
19.06.2021 14:14 29,5 C 31,7 C 28,9 C 59 % 1013,5 hPa 0,0 l/m 2 min 0 min 1052 W/m 12,9 km/h (3 Bft) 95,65 %
19.06.2021 14:16 29,6 C 32,8 C 28,9 C 58 % 1013,5 hPa 0,0 l/m 2 min 0 min 1001 W/m 16,1 km/h (3 Bft) 95,74 %
19.06.2021 14:18 29,8 C 32,8 C 28,9 C 57 % 1013,5 hPa 0,0 l/m 2 min 0 min 1006 W/m 6,4 km/h (2 Bft) 94,44 %
19.06.2021 14:20 29,9 C 33,3 C 28,9 C 56 % 1013,5 hPa 0,0 l/m 2 min 0 min 1016 W/m 6,4 km/h (2 Bft) 95,74 %
19.06.2021 14:22 30,0 C 32,8 C 28,4 C 56 % 1013,5 hPa 0,0 l/m 2 min 0 min 1055 W/m 9,7 km/h (2 Bft) 91,49 %
19.06.2021 14:24 30,1 C 32,8 C 28,9 C 56 % 1013,5 hPa 0,0 l/m 2 min 0 min 961 W/m 16,1 km/h (3 Bft) 95,92 %
19.06.2021 14:26 30,3 C 32,8 C 28,9 C 56 % 1013,5 hPa 0,0 l/m 2 min 0 min 816 W/m 12,9 km/h (3 Bft) 94,59 %
19.06.2021 14:28 30,2 C 32,2 C 28,9 C 56 % 1013,6 hPa 0,0 l/m 2 min 0 min 822 W/m 6,4 km/h (2 Bft) 95,74 %
19.06.2021 14:30 30,2 C 31,7 C 28,4 C 56 % 1013,5 hPa 0,0 l/m 2 min 0 min 757 W/m 9,7 km/h (2 Bft) 96,30 %
19.06.2021 14:32 30,2 C 31,1 C 28,4 C 57 % 1013,5 hPa 0,0 l/m 2 min 0 min 733 W/m 6,4 km/h (2 Bft) 96,00 %
19.06.2021 14:34 30,1 C 30,6 C 27,8 C 56 % 1013,6 hPa 0,0 l/m 0 min 0 min 333 W/m 19,3 km/h (3 Bft) 94,59 %
19.06.2021 14:36 29,9 C 30,0 C 27,8 C 57 % 1013,6 hPa 0,0 l/m 0 min 0 min 334 W/m 19,3 km/h (3 Bft) 93,62 %
19.06.2021 14:38 29,7 C 29,4 C 27,8 C 57 % 1013,5 hPa 0,0 l/m 0 min 0 min 404 W/m 12,9 km/h (3 Bft) 96,23 %
19.06.2021 14:40 29,6 C 30,0 C 27,8 C 57 % 1013,6 hPa 0,0 l/m 2 min 0 min 500 W/m 6,4 km/h (2 Bft) 93,62 %
19.06.2021 14:42 29,5 C 30,0 C 27,8 C 57 % 1013,6 hPa 0,0 l/m 2 min 0 min 557 W/m 12,9 km/h (3 Bft) 96,00 %
19.06.2021 14:44 29,4 C 30,0 C 27,8 C 58 % 1013,6 hPa 0,0 l/m 2 min 0 min 569 W/m 12,9 km/h (3 Bft) 97,30 %
19.06.2021 14:46 29,3 C 30,0 C 27,8 C 58 % 1013,6 hPa 0,0 l/m 2 min 0 min 740 W/m 12,9 km/h (3 Bft) 100,00 %
19.06.2021 14:48 29,3 C 30,6 C 27,8 C 58 % 1013,6 hPa 0,0 l/m 2 min 0 min 795 W/m 6,4 km/h (2 Bft) 97,87 %
19.06.2021 14:50 29,4 C 30,6 C 27,8 C 58 % 1013,6 hPa 0,0 l/m 2 min 0 min 816 W/m 19,3 km/h (3 Bft) 98,11 %
19.06.2021 14:52 29,4 C 31,1 C 27,8 C 58 % 1013,5 hPa 0,0 l/m 2 min 0 min 847 W/m 9,7 km/h (2 Bft) 100,00 %
19.06.2021 14:54 29,5 C 31,7 C 27,8 C 58 % 1013,6 hPa 0,0 l/m 2 min 0 min 839 W/m 9,7 km/h (2 Bft) 100,00 %
19.06.2021 14:56 29,5 C 31,7 C 27,8 C 57 % 1013,6 hPa 0,0 l/m 2 min 0 min 856 W/m 3,2 km/h (1 Bft) 100,00 %
19.06.2021 14:58 29,6 C 32,2 C 27,8 C 57 % 1013,5 hPa 0,0 l/m 2 min 0 min 825 W/m 12,9 km/h (3 Bft) 98,00 %
19.06.2021 15:00 29,7 C 32,2 C 28,4 C 58 % 1013,5 hPa 0,0 l/m 2 min 0 min 896 W/m 12,9 km/h (3 Bft) 100,00 %
19.06.2021 15:02 29,8 C 32,8 C 28,4 C 58 % 1013,5 hPa 0,0 l/m 2 min 0 min 948 W/m 16,1 km/h (3 Bft) 96,00 %
19.06.2021 15:04 30,0 C 33,3 C 28,4 C 58 % 1013,6 hPa 0,0 l/m 2 min 0 min 951 W/m 6,4 km/h (2 Bft) 100,00 %
19.06.2021 15:06 30,3 C 33,3 C 28,4 C 57 % 1013,5 hPa 0,0 l/m 2 min 0 min 895 W/m 9,7 km/h (2 Bft) 98,15 %
19.06.2021 15:08 30,4 C 32,8 C 27,8 C 57 % 1013,5 hPa 0,0 l/m 2 min 0 min 749 W/m 6,4 km/h (2 Bft) 100,00 %
19.06.2021 15:10 30,4 C 32,2 C 27,8 C 58 % 1013,5 hPa 0,0 l/m 2 min 0 min 608 W/m 12,9 km/h (3 Bft) 100,00 %
19.06.2021 15:12 30,4 C 32,8 C 27,8 C 58 % 1013,5 hPa 0,0 l/m 2 min 0 min 573 W/m 9,7 km/h (2 Bft) 100,00 %
19.06.2021 15:14 30,4 C 31,7 C 27,3 C 57 % 1013,5 hPa 0,0 l/m 2 min 0 min 719 W/m 16,1 km/h (3 Bft) 100,00 %
19.06.2021 15:16 30,4 C 31,1 C 27,3 C 57 % 1013,5 hPa 0,0 l/m 2 min 0 min 645 W/m 9,7 km/h (2 Bft) 97,14 %
19.06.2021 15:18 30,3 C 31,1 C 27,3 C 57 % 1013,4 hPa 0,0 l/m 2 min 0 min 613 W/m 9,7 km/h (2 Bft) 100,00 %
19.06.2021 15:20 30,1 C 30,0 C 27,3 C 57 % 1013,4 hPa 0,0 l/m 2 min 0 min 494 W/m 6,4 km/h (2 Bft) 98,00 %
19.06.2021 15:22 30,0 C 30,0 C 27,3 C 58 % 1013,4 hPa 0,0 l/m 0 min 0 min 394 W/m 9,7 km/h (2 Bft) 100,00 %
19.06.2021 15:24 30,0 C 30,6 C 27,3 C 58 % 1013,4 hPa 0,0 l/m 2 min 0 min 469 W/m 9,7 km/h (2 Bft) 100,00 %
19.06.2021 15:26 29,9 C 30,6 C 27,3 C 58 % 1013,4 hPa 0,0 l/m 2 min 0 min 590 W/m 9,7 km/h (2 Bft) 97,83 %
19.06.2021 15:28 29,9 C 31,1 C 27,3 C 59 % 1013,3 hPa 0,0 l/m 2 min 0 min 873 W/m 6,4 km/h (2 Bft) 100,00 %
19.06.2021 15:30 29,9 C 30,6 C 26,7 C 58 % 1013,3 hPa 0,0 l/m 2 min 0 min 643 W/m 9,7 km/h (2 Bft) 100,00 %
19.06.2021 15:32 29,8 C 30,6 C 27,3 C 58 % 1013,3 hPa 0,0 l/m 2 min 0 min 515 W/m 6,4 km/h (2 Bft) 100,00 %
19.06.2021 15:34 29,8 C 30,0 C 26,7 C 58 % 1013,3 hPa 0,0 l/m 2 min 0 min 564 W/m 6,4 km/h (2 Bft) 97,14 %
19.06.2021 15:36 29,8 C 30,0 C 26,7 C 58 % 1013,2 hPa 0,0 l/m 2 min 0 min 461 W/m 3,2 km/h (1 Bft) 98,11 %
19.06.2021 15:38 29,7 C 30,0 C 26,7 C 58 % 1013,2 hPa 0,0 l/m 0 min 0 min 389 W/m 9,7 km/h (2 Bft) 100,00 %
19.06.2021 15:40 29,6 C 30,0 C 26,7 C 59 % 1013,2 hPa 0,0 l/m 0 min 0 min 359 W/m 6,4 km/h (2 Bft) 100,00 %
19.06.2021 15:42 29,6 C 30,0 C 26,7 C 59 % 1013,2 hPa 0,0 l/m 2 min 0 min 423 W/m 9,7 km/h (2 Bft) 98,00 %
19.06.2021 15:44 29,6 C 30,6 C 27,3 C 59 % 1013,2 hPa 0,0 l/m 2 min 0 min 491 W/m 9,7 km/h (2 Bft) 100,00 %
19.06.2021 15:46 29,6 C 30,6 C 27,3 C 59 % 1013,3 hPa 0,0 l/m 2 min 0 min 616 W/m 9,7 km/h (2 Bft) 100,00 %
19.06.2021 15:48 29,6 C 30,6 C 27,3 C 59 % 1013,2 hPa 0,0 l/m 2 min 0 min 516 W/m 12,9 km/h (3 Bft) 100,00 %
19.06.2021 15:50 29,6 C 30,0 C 27,3 C 59 % 1013,2 hPa 0,0 l/m 2 min 0 min 469 W/m 6,4 km/h (2 Bft) 100,00 %
19.06.2021 15:52 29,5 C 30,0 C 26,7 C 59 % 1013,2 hPa 0,0 l/m 2 min 0 min 518 W/m 6,4 km/h (2 Bft) 100,00 %
19.06.2021 15:54 29,5 C 30,0 C 26,7 C 60 % 1013,1 hPa 0,0 l/m 2 min 0 min 558 W/m 9,7 km/h (2 Bft) 100,00 %
19.06.2021 15:56 29,4 C 30,0 C 26,7 C 60 % 1013,1 hPa 0,0 l/m 2 min 0 min 463 W/m 12,9 km/h (3 Bft) 100,00 %
19.06.2021 15:58 29,4 C 30,0 C 26,7 C 60 % 1013,1 hPa 0,0 l/m 2 min 0 min 548 W/m 12,9 km/h (3 Bft) 97,96 %
19.06.2021 16:00 29,4 C 30,0 C 26,7 C 60 % 1013,1 hPa 0,0 l/m 2 min 0 min 637 W/m 12,9 km/h (3 Bft) 100,00 %
19.06.2021 16:02 29,5 C 30,0 C 26,7 C 60 % 1013,0 hPa 0,0 l/m 2 min 0 min 564 W/m 9,7 km/h (2 Bft) 97,37 %
19.06.2021 16:04 29,5 C 30,6 C 26,7 C 60 % 1012,9 hPa 0,0 l/m 2 min 0 min 572 W/m 9,7 km/h (2 Bft) 98,00 %
19.06.2021 16:06 29,5 C 31,1 C 26,7 C 60 % 1013,0 hPa 0,0 l/m 2 min 0 min 522 W/m 6,4 km/h (2 Bft) 100,00 %
19.06.2021 16:08 29,5 C 31,7 C 27,3 C 61 % 1012,9 hPa 0,0 l/m 2 min 0 min 548 W/m 9,7 km/h (2 Bft) 100,00 %
19.06.2021 16:10 29,5 C 31,7 C 27,3 C 60 % 1012,9 hPa 0,0 l/m 2 min 0 min 659 W/m 9,7 km/h (2 Bft) 97,83 %
19.06.2021 16:12 29,5 C 32,2 C 27,3 C 60 % 1012,9 hPa 0,0 l/m 2 min 0 min 759 W/m 12,9 km/h (3 Bft) 100,00 %
19.06.2021 16:14 29,6 C 32,8 C 27,3 C 60 % 1012,8 hPa 0,0 l/m 2 min 0 min 868 W/m 6,4 km/h (2 Bft) 100,00 %
19.06.2021 16:16 29,6 C 33,3 C 27,3 C 61 % 1012,8 hPa 0,0 l/m 2 min 0 min 864 W/m 16,1 km/h (3 Bft) 100,00 %
19.06.2021 16:18 29,7 C 33,9 C 27,3 C 60 % 1012,8 hPa 0,0 l/m 2 min 0 min 841 W/m 16,1 km/h (3 Bft) 100,00 %
19.06.2021 16:20 29,8 C 33,9 C 27,3 C 60 % 1012,9 hPa 0,0 l/m 2 min 0 min 817 W/m 6,4 km/h (2 Bft) 100,00 %
19.06.2021 16:22 29,8 C 34,4 C 27,8 C 60 % 1012,9 hPa 0,0 l/m 2 min 0 min 801 W/m 9,7 km/h (2 Bft) 97,56 %
19.06.2021 16:24 29,9 C 34,4 C 27,8 C 60 % 1012,9 hPa 0,0 l/m 2 min 0 min 790 W/m 12,9 km/h (3 Bft) 100,00 %
19.06.2021 16:26 30,0 C 33,9 C 27,3 C 59 % 1012,8 hPa 0,0 l/m 2 min 0 min 782 W/m 6,4 km/h (2 Bft) 93,88 %
19.06.2021 16:28 30,0 C 34,4 C 27,3 C 60 % 1012,8 hPa 0,0 l/m 2 min 0 min 759 W/m 3,2 km/h (1 Bft) 97,87 %
19.06.2021 16:30 30,0 C 34,4 C 27,3 C 59 % 1012,8 hPa 0,0 l/m 2 min 0 min 766 W/m 9,7 km/h (2 Bft) 95,74 %
19.06.2021 16:32 30,0 C 34,4 C 27,3 C 60 % 1012,8 hPa 0,0 l/m 2 min 0 min 773 W/m 9,7 km/h (2 Bft) 95,24 %
19.06.2021 16:34 30,1 C 33,9 C 27,3 C 59 % 1012,8 hPa 0,0 l/m 2 min 0 min 748 W/m 9,7 km/h (2 Bft) 97,96 %
19.06.2021 16:36 30,1 C 34,4 C 27,3 C 58 % 1012,8 hPa 0,0 l/m 2 min 0 min 729 W/m 9,7 km/h (2 Bft) 95,92 %
19.06.2021 16:38 30,1 C 34,4 C 27,3 C 59 % 1012,8 hPa 0,0 l/m 2 min 0 min 711 W/m 9,7 km/h (2 Bft) 95,74 %
19.06.2021 16:40 30,1 C 34,4 C 27,3 C 58 % 1012,8 hPa 0,0 l/m 2 min 0 min 688 W/m 9,7 km/h (2 Bft) 94,29 %
19.06.2021 16:42 30,2 C 35,0 C 27,3 C 59 % 1012,8 hPa 0,0 l/m 2 min 0 min 700 W/m 9,7 km/h (2 Bft) 95,74 %
19.06.2021 16:44 30,3 C 35,0 C 27,3 C 58 % 1012,7 hPa 0,0 l/m 2 min 0 min 708 W/m 9,7 km/h (2 Bft) 90,91 %
19.06.2021 16:46 30,5 C 35,6 C 27,8 C 59 % 1012,7 hPa 0,0 l/m 2 min 0 min 703 W/m 6,4 km/h (2 Bft) 94,00 %
19.06.2021 16:48 30,6 C 35,6 C 27,8 C 59 % 1012,7 hPa 0,0 l/m 2 min 0 min 696 W/m 9,7 km/h (2 Bft) 91,43 %
19.06.2021 16:50 30,7 C 35,6 C 27,8 C 58 % 1012,7 hPa 0,0 l/m 2 min 0 min 700 W/m 9,7 km/h (2 Bft) 94,64 %
19.06.2021 16:52 30,8 C 35,6 C 27,3 C 57 % 1012,7 hPa 0,0 l/m 2 min 0 min 691 W/m 3,2 km/h (1 Bft) 94,00 %
19.06.2021 16:54 30,8 C 35,6 C 27,8 C 58 % 1012,7 hPa 0,0 l/m 2 min 0 min 621 W/m 6,4 km/h (2 Bft) 91,43 %
19.06.2021 16:56 30,8 C 34,4 C 27,3 C 57 % 1012,7 hPa 0,0 l/m 2 min 0 min 512 W/m 6,4 km/h (2 Bft) 94,55 %
19.06.2021 16:58 30,8 C 33,9 C 27,3 C 58 % 1012,6 hPa 0,0 l/m 2 min 0 min 510 W/m 9,7 km/h (2 Bft) 93,62 %
19.06.2021 17:00 30,8 C 33,9 C 27,3 C 57 % 1012,6 hPa 0,0 l/m 2 min 0 min 510 W/m 9,7 km/h (2 Bft) 92,00 %
19.06.2021 17:02 30,6 C 33,9 C 26,7 C 58 % 1012,5 hPa 0,0 l/m 2 min 0 min 614 W/m 3,2 km/h (1 Bft) 94,00 %
19.06.2021 17:04 30,4 C 33,9 C 27,3 C 59 % 1012,5 hPa 0,0 l/m 2 min 0 min 638 W/m 9,7 km/h (2 Bft) 92,11 %
19.06.2021 17:06 30,3 C 35,0 C 27,3 C 61 % 1012,5 hPa 0,0 l/m 2 min 0 min 685 W/m 9,7 km/h (2 Bft) 94,00 %
19.06.2021 17:08 30,3 C 35,0 C 27,8 C 59 % 1012,5 hPa 0,0 l/m 2 min 0 min 693 W/m 12,9 km/h (3 Bft) 93,48 %
19.06.2021 17:10 30,4 C 35,0 C 27,8 C 59 % 1012,5 hPa 0,0 l/m 2 min 0 min 698 W/m 9,7 km/h (2 Bft) 91,49 %
19.06.2021 17:12 30,5 C 36,1 C 28,4 C 58 % 1012,5 hPa 0,0 l/m 2 min 0 min 660 W/m 12,9 km/h (3 Bft) 88,64 %
19.06.2021 17:14 30,7 C 35,6 C 27,8 C 59 % 1012,4 hPa 0,0 l/m 2 min 0 min 636 W/m 9,7 km/h (2 Bft) 94,00 %
19.06.2021 17:16 30,8 C 35,0 C 27,8 C 58 % 1012,4 hPa 0,0 l/m 2 min 0 min 624 W/m 16,1 km/h (3 Bft) 88,68 %
19.06.2021 17:18 30,7 C 34,4 C 27,8 C 58 % 1012,4 hPa 0,0 l/m 2 min 0 min 611 W/m 9,7 km/h (2 Bft) 93,48 %
19.06.2021 17:20 30,7 C 35,0 C 27,8 C 59 % 1012,4 hPa 0,0 l/m 2 min 0 min 613 W/m 16,1 km/h (3 Bft) 97,37 %
19.06.2021 17:22 30,6 C 33,9 C 27,8 C 57 % 1012,3 hPa 0,0 l/m 2 min 0 min 614 W/m 12,9 km/h (3 Bft) 92,00 %
19.06.2021 17:24 30,6 C 34,4 C 27,8 C 57 % 1012,2 hPa 0,0 l/m 2 min 0 min 610 W/m 19,3 km/h (3 Bft) 95,74 %
19.06.2021 17:26 30,6 C 34,4 C 27,8 C 58 % 1012,2 hPa 0,0 l/m 2 min 0 min 602 W/m 16,1 km/h (3 Bft) 93,62 %
19.06.2021 17:28 30,6 C 34,4 C 27,8 C 58 % 1012,2 hPa 0,0 l/m 2 min 0 min 589 W/m 9,7 km/h (2 Bft) 95,45 %
19.06.2021 17:30 30,7 C 34,4 C 28,4 C 58 % 1012,2 hPa 0,0 l/m 2 min 0 min 574 W/m 9,7 km/h (2 Bft) 96,00 %
19.06.2021 17:32 30,8 C 33,9 C 28,4 C 58 % 1012,2 hPa 0,0 l/m 2 min 0 min 550 W/m 16,1 km/h (3 Bft) 94,23 %
19.06.2021 17:34 30,8 C 34,4 C 28,4 C 58 % 1012,1 hPa 0,0 l/m 2 min 0 min 566 W/m 9,7 km/h (2 Bft) 95,74 %
19.06.2021 17:36 30,8 C 34,4 C 27,8 C 57 % 1012,1 hPa 0,0 l/m 2 min 0 min 578 W/m 9,7 km/h (2 Bft) 94,74 %
19.06.2021 17:38 30,9 C 35,0 C 28,4 C 58 % 1012,0 hPa 0,0 l/m 2 min 0 min 597 W/m 9,7 km/h (2 Bft) 96,00 %
19.06.2021 17:40 30,9 C 35,0 C 28,4 C 57 % 1011,9 hPa 0,0 l/m 2 min 0 min 591 W/m 19,3 km/h (3 Bft) 97,87 %
19.06.2021 17:42 30,9 C 34,4 C 28,4 C 58 % 1011,9 hPa 0,0 l/m 2 min 0 min 585 W/m 12,9 km/h (3 Bft) 93,62 %
19.06.2021 17:44 30,9 C 34,4 C 28,4 C 57 % 1011,9 hPa 0,0 l/m 2 min 0 min 580 W/m 12,9 km/h (3 Bft) 100,00 %
19.06.2021 17:46 30,9 C 34,4 C 28,4 C 59 % 1011,9 hPa 0,0 l/m 2 min 0 min 588 W/m 12,9 km/h (3 Bft) 100,00 %
19.06.2021 17:48 31,0 C 35,0 C 28,4 C 58 % 1011,8 hPa 0,0 l/m 2 min 0 min 593 W/m 9,7 km/h (2 Bft) 100,00 %
19.06.2021 17:50 31,0 C 35,6 C 28,4 C 57 % 1011,8 hPa 0,0 l/m 2 min 0 min 595 W/m 9,7 km/h (2 Bft) 100,00 %
19.06.2021 17:52 31,0 C 35,6 C 28,4 C 58 % 1011,9 hPa 0,0 l/m 2 min 0 min 574 W/m 9,7 km/h (2 Bft) 98,00 %
19.06.2021 17:54 31,1 C 35,6 C 28,4 C 59 % 1011,9 hPa 0,0 l/m 2 min 0 min 571 W/m 12,9 km/h (3 Bft) 100,00 %
19.06.2021 17:56 31,0 C 35,0 C 28,9 C 58 % 1011,8 hPa 0,0 l/m 2 min 0 min 545 W/m 22,5 km/h (4 Bft) 100,00 %
19.06.2021 17:58 31,0 C 35,0 C 28,9 C 57 % 1011,8 hPa 0,0 l/m 2 min 0 min 556 W/m 12,9 km/h (3 Bft) 98,00 %
19.06.2021 18:00 31,0 C 35,6 C 28,9 C 59 % 1011,8 hPa 0,0 l/m 2 min 0 min 554 W/m 16,1 km/h (3 Bft) 100,00 %
19.06.2021 18:02 31,0 C 35,0 C 28,9 C 59 % 1011,7 hPa 0,0 l/m 2 min 0 min 550 W/m 16,1 km/h (3 Bft) 97,37 %
19.06.2021 18:04 31,0 C 34,4 C 28,9 C 58 % 1011,8 hPa 0,0 l/m 2 min 0 min 567 W/m 16,1 km/h (3 Bft) 100,00 %
19.06.2021 18:08 31,0 C 34,4 C 28,9 C 57 % 1011,6 hPa 0,0 l/m 4 min 0 min 602 W/m 19,3 km/h (3 Bft) 100,00 %
19.06.2021 18:10 30,9 C 35,0 C 28,9 C 58 % 1011,6 hPa 0,0 l/m 2 min 0 min 604 W/m 22,5 km/h (4 Bft) 100,00 %
19.06.2021 18:12 30,9 C 35,0 C 28,9 C 57 % 1011,6 hPa 0,0 l/m 2 min 0 min 601 W/m 16,1 km/h (3 Bft) 100,00 %
19.06.2021 18:14 30,9 C 35,0 C 28,9 C 58 % 1011,5 hPa 0,0 l/m 2 min 0 min 592 W/m 12,9 km/h (3 Bft) 100,00 %
19.06.2021 18:16 31,0 C 35,0 C 28,9 C 57 % 1011,5 hPa 0,0 l/m 2 min 0 min 576 W/m 12,9 km/h (3 Bft) 97,30 %
19.06.2021 18:18 30,9 C 35,0 C 28,9 C 58 % 1011,5 hPa 0,0 l/m 2 min 0 min 519 W/m 22,5 km/h (4 Bft) 97,83 %
19.06.2021 18:20 30,8 C 34,4 C 28,9 C 58 % 1011,5 hPa 0,0 l/m 2 min 0 min 515 W/m 22,5 km/h (4 Bft) 100,00 %
19.06.2021 18:22 30,7 C 33,9 C 28,9 C 57 % 1011,4 hPa 0,0 l/m 2 min 0 min 538 W/m 16,1 km/h (3 Bft) 100,00 %
19.06.2021 18:24 30,6 C 34,4 C 28,9 C 58 % 1011,4 hPa 0,0 l/m 2 min 0 min 535 W/m 16,1 km/h (3 Bft) 100,00 %
19.06.2021 18:26 30,6 C 35,0 C 28,9 C 59 % 1011,4 hPa 0,0 l/m 2 min 0 min 524 W/m 16,1 km/h (3 Bft) 97,87 %
19.06.2021 18:28 30,6 C 33,9 C 28,9 C 58 % 1011,3 hPa 0,0 l/m 2 min 0 min 453 W/m 19,3 km/h (3 Bft) 98,11 %
19.06.2021 18:30 30,6 C 34,4 C 28,9 C 58 % 1011,3 hPa 0,0 l/m 2 min 0 min 461 W/m 16,1 km/h (3 Bft) 100,00 %
19.06.2021 18:32 30,5 C 33,3 C 28,4 C 58 % 1011,4 hPa 0,0 l/m 2 min 0 min 456 W/m 12,9 km/h (3 Bft) 100,00 %
19.06.2021 18:34 30,4 C 32,8 C 28,4 C 58 % 1011,3 hPa 0,0 l/m 2 min 0 min 343 W/m 25,7 km/h (4 Bft) 100,00 %
19.06.2021 18:36 30,4 C 32,8 C 28,9 C 58 % 1011,2 hPa 0,0 l/m 2 min 0 min 483 W/m 16,1 km/h (3 Bft) 97,87 %
19.06.2021 18:38 30,4 C 33,3 C 28,9 C 59 % 1011,1 hPa 0,0 l/m 2 min 0 min 481 W/m 16,1 km/h (3 Bft) 100,00 %
19.06.2021 18:40 30,5 C 33,3 C 28,9 C 58 % 1011,1 hPa 0,0 l/m 2 min 0 min 489 W/m 19,3 km/h (3 Bft) 100,00 %
19.06.2021 18:42 30,5 C 33,3 C 28,4 C 59 % 1011,1 hPa 0,0 l/m 2 min 0 min 367 W/m 19,3 km/h (3 Bft) 97,87 %
19.06.2021 18:44 30,4 C 33,3 C 28,4 C 59 % 1011,1 hPa 0,0 l/m 2 min 0 min 435 W/m 12,9 km/h (3 Bft) 100,00 %
19.06.2021 18:46 30,4 C 32,8 C 28,4 C 60 % 1011,2 hPa 0,0 l/m 2 min 0 min 401 W/m 22,5 km/h (4 Bft) 100,00 %
19.06.2021 18:48 30,2 C 31,7 C 27,8 C 60 % 1011,3 hPa 0,0 l/m 2 min 0 min 380 W/m 25,7 km/h (4 Bft) 95,74 %
19.06.2021 18:50 30,0 C 31,7 C 27,8 C 60 % 1011,3 hPa 0,0 l/m 2 min 0 min 394 W/m 25,7 km/h (4 Bft) 100,00 %
19.06.2021 18:52 29,8 C 31,7 C 27,8 C 61 % 1011,3 hPa 0,0 l/m 2 min 0 min 415 W/m 16,1 km/h (3 Bft) 100,00 %
19.06.2021 18:54 29,8 C 32,2 C 27,8 C 62 % 1011,2 hPa 0,0 l/m 2 min 0 min 420 W/m 12,9 km/h (3 Bft) 100,00 %
19.06.2021 18:56 29,8 C 32,2 C 27,8 C 61 % 1011,3 hPa 0,0 l/m 2 min 0 min 417 W/m 16,1 km/h (3 Bft) 97,87 %
19.06.2021 18:58 29,8 C 32,8 C 27,8 C 62 % 1011,2 hPa 0,0 l/m 2 min 0 min 387 W/m 12,9 km/h (3 Bft) 100,00 %
19.06.2021 19:00 29,8 C 32,2 C 27,8 C 62 % 1011,2 hPa 0,0 l/m 2 min 0 min 340 W/m 12,9 km/h (3 Bft) 100,00 %
19.06.2021 19:02 29,9 C 32,2 C 28,4 C 62 % 1011,2 hPa 0,0 l/m 2 min 0 min 378 W/m 12,9 km/h (3 Bft) 100,00 %
19.06.2021 19:04 29,9 C 32,2 C 28,4 C 62 % 1011,2 hPa 0,0 l/m 2 min 0 min 362 W/m 16,1 km/h (3 Bft) 100,00 %
19.06.2021 19:06 29,8 C 31,1 C 27,8 C 62 % 1011,1 hPa 0,0 l/m 2 min 0 min 297 W/m 16,1 km/h (3 Bft) 100,00 %
19.06.2021 19:08 29,7 C 30,0 C 27,3 C 62 % 1011,1 hPa 0,0 l/m 2 min 0 min 259 W/m 16,1 km/h (3 Bft) 98,00 %
19.06.2021 19:10 29,5 C 30,0 C 27,3 C 62 % 1011,0 hPa 0,0 l/m 2 min 0 min 286 W/m 9,7 km/h (2 Bft) 97,87 %
19.06.2021 19:12 29,3 C 30,0 C 27,3 C 63 % 1011,0 hPa 0,0 l/m 2 min 0 min 313 W/m 19,3 km/h (3 Bft) 97,96 %
19.06.2021 19:14 29,3 C 30,0 C 27,3 C 63 % 1011,0 hPa 0,0 l/m 2 min 0 min 317 W/m 19,3 km/h (3 Bft) 97,14 %
19.06.2021 19:16 29,2 C 29,4 C 26,7 C 62 % 1011,0 hPa 0,0 l/m 2 min 0 min 313 W/m 22,5 km/h (4 Bft) 98,11 %
19.06.2021 19:18 29,1 C 29,4 C 26,7 C 63 % 1010,9 hPa 0,0 l/m 2 min 0 min 302 W/m 16,1 km/h (3 Bft) 96,00 %
19.06.2021 19:20 29,0 C 29,4 C 26,7 C 63 % 1010,9 hPa 0,0 l/m 2 min 0 min 292 W/m 22,5 km/h (4 Bft) 97,87 %
19.06.2021 19:22 29,0 C 28,9 C 26,1 C 63 % 1010,8 hPa 0,0 l/m 2 min 0 min 274 W/m 12,9 km/h (3 Bft) 97,96 %
19.06.2021 19:24 28,9 C 28,9 C 26,1 C 63 % 1010,8 hPa 0,0 l/m 2 min 0 min 253 W/m 12,9 km/h (3 Bft) 97,14 %
19.06.2021 19:26 28,8 C 28,3 C 25,6 C 64 % 1010,8 hPa 0,0 l/m 2 min 0 min 212 W/m 19,3 km/h (3 Bft) 98,15 %
19.06.2021 19:28 28,6 C 28,3 C 25,6 C 64 % 1010,8 hPa 0,0 l/m 2 min 0 min 196 W/m 19,3 km/h (3 Bft) 97,96 %
19.06.2021 19:30 28,5 C 28,3 C 25,6 C 64 % 1010,8 hPa 0,0 l/m 2 min 0 min 215 W/m 22,5 km/h (4 Bft) 97,96 %
19.06.2021 19:32 28,5 C 28,3 C 25,6 C 65 % 1010,7 hPa 0,0 l/m 2 min 0 min 214 W/m 9,7 km/h (2 Bft) 94,29 %
19.06.2021 19:34 28,4 C 27,8 C 25,6 C 65 % 1010,8 hPa 0,0 l/m 2 min 0 min 194 W/m 16,1 km/h (3 Bft) 98,15 %
19.06.2021 19:36 28,3 C 27,8 C 25,6 C 65 % 1010,8 hPa 0,0 l/m 2 min 0 min 183 W/m 12,9 km/h (3 Bft) 96,00 %
19.06.2021 19:38 28,3 C 27,8 C 25,6 C 66 % 1010,9 hPa 0,0 l/m 2 min 0 min 184 W/m 16,1 km/h (3 Bft) 97,92 %
19.06.2021 19:40 28,1 C 27,2 C 25,0 C 66 % 1010,8 hPa 0,0 l/m 2 min 0 min 183 W/m 16,1 km/h (3 Bft) 95,74 %
19.06.2021 19:42 28,0 C 27,2 C 25,6 C 66 % 1010,7 hPa 0,0 l/m 2 min 0 min 192 W/m 12,9 km/h (3 Bft) 97,87 %
19.06.2021 19:44 27,9 C 27,2 C 25,6 C 67 % 1010,8 hPa 0,0 l/m 2 min 0 min 194 W/m 19,3 km/h (3 Bft) 97,14 %
19.06.2021 19:46 27,9 C 27,2 C 25,0 C 66 % 1010,8 hPa 0,0 l/m 2 min 0 min 192 W/m 12,9 km/h (3 Bft) 98,15 %
19.06.2021 19:48 27,8 C 27,2 C 25,0 C 66 % 1010,7 hPa 0,0 l/m 2 min 0 min 182 W/m 12,9 km/h (3 Bft) 100,00 %
19.06.2021 19:50 27,8 C 27,2 C 25,0 C 67 % 1010,7 hPa 0,0 l/m 2 min 0 min 164 W/m 12,9 km/h (3 Bft) 97,92 %
19.06.2021 19:52 27,6 C 27,2 C 25,0 C 67 % 1010,5 hPa 0,0 l/m 2 min 0 min 152 W/m 9,7 km/h (2 Bft) 100,00 %
19.06.2021 19:54 27,6 C 27,2 C 25,0 C 67 % 1010,4 hPa 0,0 l/m 2 min 0 min 140 W/m 25,7 km/h (4 Bft) 98,15 %
19.06.2021 19:56 27,5 C 27,2 C 25,0 C 67 % 1010,3 hPa 0,0 l/m 0 min 0 min 129 W/m 16,1 km/h (3 Bft) 100,00 %
19.06.2021 19:58 27,4 C 26,7 C 24,5 C 67 % 1010,4 hPa 0,0 l/m 0 min 0 min 121 W/m 22,5 km/h (4 Bft) 97,87 %
19.06.2021 20:00 27,3 C 26,7 C 24,5 C 68 % 1010,3 hPa 0,0 l/m 0 min 0 min 117 W/m 19,3 km/h (3 Bft) 100,00 %
19.06.2021 20:02 27,2 C 26,1 C 24,5 C 68 % 1010,4 hPa 0,0 l/m 0 min 0 min 108 W/m 6,4 km/h (2 Bft) 100,00 %
19.06.2021 20:04 27,1 C 26,1 C 24,5 C 69 % 1010,3 hPa 0,0 l/m 0 min 0 min 99 W/m 16,1 km/h (3 Bft) 100,00 %
19.06.2021 20:06 27,0 C 26,1 C 24,5 C 69 % 1010,3 hPa 0,0 l/m 0 min 0 min 95 W/m 12,9 km/h (3 Bft) 100,00 %
19.06.2021 20:08 27,0 C 26,1 C 24,5 C 69 % 1010,2 hPa 0,0 l/m 0 min 0 min 93 W/m 22,5 km/h (4 Bft) 98,18 %
19.06.2021 20:10 26,9 C 26,1 C 23,9 C 69 % 1010,2 hPa 0,0 l/m 0 min 0 min 91 W/m 16,1 km/h (3 Bft) 94,29 %
19.06.2021 20:12 26,9 C 26,1 C 23,9 C 69 % 1010,2 hPa 0,0 l/m 0 min 0 min 88 W/m 12,9 km/h (3 Bft) 95,24 %
19.06.2021 20:14 26,8 C 26,1 C 23,9 C 70 % 1010,1 hPa 0,0 l/m 0 min 0 min 84 W/m 16,1 km/h (3 Bft) 96,36 %
19.06.2021 20:16 26,7 C 26,1 C 23,9 C 70 % 1010,1 hPa 0,0 l/m 0 min 0 min 80 W/m 12,9 km/h (3 Bft) 96,00 %
19.06.2021 20:18 26,6 C 26,1 C 23,9 C 70 % 1010,1 hPa 0,0 l/m 0 min 0 min 77 W/m 22,5 km/h (4 Bft) 94,29 %
19.06.2021 20:20 26,5 C 25,6 C 23,9 C 71 % 1010,1 hPa 0,0 l/m 0 min 0 min 77 W/m 19,3 km/h (3 Bft) 95,74 %
19.06.2021 20:22 26,5 C 25,6 C 23,9 C 71 % 1010,1 hPa 0,0 l/m 0 min 0 min 77 W/m 12,9 km/h (3 Bft) 96,43 %
19.06.2021 20:24 26,4 C 25,6 C 23,4 C 71 % 1010,0 hPa 0,0 l/m 0 min 0 min 79 W/m 22,5 km/h (4 Bft) 96,00 %
19.06.2021 20:26 26,3 C 25,6 C 23,4 C 71 % 1010,1 hPa 0,0 l/m 0 min 0 min 79 W/m 22,5 km/h (4 Bft) 94,29 %
19.06.2021 20:28 26,3 C 25,6 C 23,4 C 72 % 1010,0 hPa 0,0 l/m 0 min 0 min 79 W/m 9,7 km/h (2 Bft) 94,55 %
19.06.2021 20:30 26,3 C 25,6 C 23,4 C 72 % 1010,1 hPa 0,0 l/m 0 min 0 min 76 W/m 12,9 km/h (3 Bft) 96,00 %
19.06.2021 20:32 26,1 C 25,6 C 23,4 C 72 % 1010,1 hPa 0,0 l/m 0 min 0 min 73 W/m 9,7 km/h (2 Bft) 94,29 %
19.06.2021 20:34 26,1 C 25,6 C 23,4 C 72 % 1010,1 hPa 0,0 l/m 0 min 0 min 69 W/m 19,3 km/h (3 Bft) 94,64 %
19.06.2021 20:36 26,1 C 25,0 C 23,4 C 72 % 1010,1 hPa 0,0 l/m 0 min 0 min 67 W/m 16,1 km/h (3 Bft) 95,92 %
19.06.2021 20:38 26,0 C 25,0 C 23,4 C 73 % 1010,1 hPa 0,0 l/m 0 min 0 min 63 W/m 16,1 km/h (3 Bft) 94,44 %
19.06.2021 20:40 26,0 C 25,0 C 23,4 C 72 % 1010,1 hPa 0,0 l/m 0 min 0 min 61 W/m 16,1 km/h (3 Bft) 94,23 %
19.06.2021 20:42 25,9 C 25,0 C 23,4 C 73 % 1010,1 hPa 0,0 l/m 0 min 0 min 56 W/m 6,4 km/h (2 Bft) 96,00 %
19.06.2021 20:44 25,9 C 25,0 C 23,4 C 73 % 1010,2 hPa 0,0 l/m 0 min 0 min 52 W/m 9,7 km/h (2 Bft) 94,00 %
19.06.2021 20:46 25,9 C 25,0 C 23,4 C 73 % 1010,2 hPa 0,0 l/m 0 min 0 min 47 W/m 9,7 km/h (2 Bft) 97,14 %
19.06.2021 20:48 25,9 C 25,0 C 23,4 C 73 % 1010,2 hPa 0,0 l/m 0 min 0 min 42 W/m 16,1 km/h (3 Bft) 94,64 %
19.06.2021 20:50 25,8 C 25,0 C 22,8 C 73 % 1010,2 hPa 0,0 l/m 0 min 0 min 37 W/m 19,3 km/h (3 Bft) 95,65 %
19.06.2021 20:52 25,8 C 25,0 C 22,8 C 73 % 1010,2 hPa 0,0 l/m 0 min 0 min 32 W/m 19,3 km/h (3 Bft) 96,00 %
19.06.2021 20:54 25,7 C 25,0 C 22,8 C 73 % 1010,2 hPa 0,0 l/m 0 min 0 min 28 W/m 12,9 km/h (3 Bft) 92,11 %
19.06.2021 20:56 25,7 C 25,0 C 22,8 C 74 % 1010,3 hPa 0,0 l/m 0 min 0 min 24 W/m 12,9 km/h (3 Bft) 95,74 %
19.06.2021 20:58 25,6 C 25,0 C 22,8 C 74 % 1010,2 hPa 0,0 l/m 0 min 0 min 20 W/m 16,1 km/h (3 Bft) 94,64 %
19.06.2021 21:00 25,6 C 24,4 C 22,8 C 74 % 1010,3 hPa 0,0 l/m 0 min 0 min 17 W/m 16,1 km/h (3 Bft) 97,37 %
19.06.2021 21:02 25,6 C 24,4 C 22,8 C 74 % 1010,4 hPa 0,0 l/m 0 min 0 min 15 W/m 16,1 km/h (3 Bft) 93,62 %
19.06.2021 21:04 25,5 C 24,4 C 22,8 C 74 % 1010,3 hPa 0,0 l/m 0 min 0 min 13 W/m 12,9 km/h (3 Bft) 98,18 %
19.06.2021 21:06 25,5 C 24,4 C 22,8 C 74 % 1010,3 hPa 0,0 l/m 0 min 0 min 12 W/m 19,3 km/h (3 Bft) 98,00 %
19.06.2021 21:08 25,4 C 24,4 C 22,8 C 74 % 1010,3 hPa 0,0 l/m 0 min 0 min 11 W/m 12,9 km/h (3 Bft) 100,00 %
19.06.2021 21:10 25,4 C 24,4 C 22,8 C 74 % 1010,2 hPa 0,0 l/m 0 min 0 min 11 W/m 3,2 km/h (1 Bft) 100,00 %
19.06.2021 21:12 25,4 C 24,4 C 22,8 C 74 % 1010,2 hPa 0,0 l/m 0 min 0 min 9 W/m 9,7 km/h (2 Bft) 100,00 %
19.06.2021 21:14 25,4 C 24,4 C 22,8 C 74 % 1010,2 hPa 0,0 l/m 0 min 0 min 9 W/m 9,7 km/h (2 Bft) 100,00 %
19.06.2021 21:16 25,3 C 24,4 C 22,3 C 75 % 1010,2 hPa 0,0 l/m 0 min 0 min 9 W/m 3,2 km/h (1 Bft) 97,37 %
19.06.2021 21:18 25,3 C 24,4 C 22,3 C 75 % 1010,0 hPa 0,0 l/m 0 min 0 min 7 W/m 9,7 km/h (2 Bft) 98,00 %
19.06.2021 21:20 25,3 C 24,4 C 22,8 C 75 % 1010,0 hPa 0,0 l/m 0 min 0 min 7 W/m 6,4 km/h (2 Bft) 100,00 %
19.06.2021 21:22 25,3 C 24,4 C 22,3 C 75 % 1009,9 hPa 0,0 l/m 0 min 0 min 5 W/m 6,4 km/h (2 Bft) 100,00 %
19.06.2021 21:24 25,2 C 24,4 C 22,3 C 75 % 1009,9 hPa 0,0 l/m 0 min 0 min 3 W/m 12,9 km/h (3 Bft) 100,00 %
19.06.2021 21:26 25,2 C 24,4 C 22,3 C 75 % 1009,8 hPa 0,0 l/m 0 min 0 min 0 W/m 9,7 km/h (2 Bft) 100,00 %
19.06.2021 21:28 25,1 C 24,4 C 22,3 C 75 % 1009,8 hPa 0,0 l/m 0 min 0 min 0 W/m 12,9 km/h (3 Bft) 100,00 %
19.06.2021 21:30 25,1 C 24,4 C 22,3 C 75 % 1009,8 hPa 0,0 l/m 0 min 0 min 0 W/m 16,1 km/h (3 Bft) 100,00 %
19.06.2021 21:32 25,1 C 24,4 C 22,3 C 75 % 1009,7 hPa 0,0 l/m 0 min 0 min 0 W/m 16,1 km/h (3 Bft) 100,00 %
19.06.2021 21:34 25,1 C 24,4 C 22,3 C 76 % 1009,5 hPa 0,0 l/m 0 min 0 min 0 W/m 12,9 km/h (3 Bft) 100,00 %
19.06.2021 21:36 25,1 C 24,4 C 22,3 C 76 % 1009,5 hPa 0,0 l/m 0 min 0 min 0 W/m 12,9 km/h (3 Bft) 97,96 %
19.06.2021 21:38 25,1 C 23,9 C 22,3 C 76 % 1009,4 hPa 0,0 l/m 0 min 0 min 0 W/m 9,7 km/h (2 Bft) 95,74 %
19.06.2021 21:40 25,1 C 23,9 C 22,3 C 76 % 1009,4 hPa 0,0 l/m 0 min 0 min 0 W/m 6,4 km/h (2 Bft) 97,87 %
19.06.2021 21:42 25,0 C 23,9 C 22,3 C 76 % 1009,4 hPa 0,0 l/m 0 min 0 min 0 W/m 12,9 km/h (3 Bft) 97,73 %
19.06.2021 21:44 25,0 C 23,9 C 22,3 C 76 % 1009,5 hPa 0,0 l/m 0 min 0 min 0 W/m 6,4 km/h (2 Bft) 98,00 %
19.06.2021 21:46 25,0 C 23,9 C 22,3 C 76 % 1009,4 hPa 0,0 l/m 0 min 0 min 0 W/m 12,9 km/h (3 Bft) 100,00 %
19.06.2021 21:48 25,0 C 23,9 C 22,3 C 76 % 1009,3 hPa 0,0 l/m 0 min 0 min 0 W/m 12,9 km/h (3 Bft) 97,37 %
19.06.2021 21:50 24,9 C 23,9 C 22,3 C 76 % 1009,3 hPa 0,0 l/m 0 min 0 min 0 W/m 9,7 km/h (2 Bft) 98,00 %
19.06.2021 21:52 24,9 C 23,9 C 22,3 C 76 % 1009,3 hPa 0,0 l/m 0 min 0 min 0 W/m 6,4 km/h (2 Bft) 97,87 %
19.06.2021 21:54 24,9 C 23,9 C 22,3 C 76 % 1009,4 hPa 0,0 l/m 0 min 0 min 0 W/m 6,4 km/h (2 Bft) 95,74 %
19.06.2021 21:56 24,9 C 23,9 C 22,3 C 77 % 1009,4 hPa 0,0 l/m 0 min 0 min 0 W/m 9,7 km/h (2 Bft) 97,73 %
19.06.2021 21:58 24,9 C 23,9 C 22,3 C 77 % 1009,4 hPa 0,0 l/m 0 min 0 min 0 W/m 12,9 km/h (3 Bft) 96,00 %
19.06.2021 22:00 24,9 C 23,9 C 22,3 C 77 % 1009,3 hPa 0,0 l/m 0 min 0 min 0 W/m 6,4 km/h (2 Bft) 97,96 %
19.06.2021 22:02 24,8 C 23,9 C 22,3 C 77 % 1009,3 hPa 0,0 l/m 0 min 0 min 0 W/m 3,2 km/h (1 Bft) 91,43 %
19.06.2021 22:04 24,8 C 23,9 C 22,3 C 77 % 1009,2 hPa 0,0 l/m 0 min 0 min 0 W/m 3,2 km/h (1 Bft) 98,21 %
19.06.2021 22:06 24,8 C 23,9 C 21,7 C 77 % 1009,2 hPa 0,0 l/m 0 min 0 min 0 W/m 9,7 km/h (2 Bft) 98,00 %
19.06.2021 22:08 24,8 C 23,9 C 21,7 C 77 % 1009,2 hPa 0,0 l/m 0 min 0 min 0 W/m 6,4 km/h (2 Bft) 97,37 %
19.06.2021 22:10 24,8 C 23,9 C 21,7 C 77 % 1009,2 hPa 0,0 l/m 0 min 0 min 0 W/m 6,4 km/h (2 Bft) 97,87 %
19.06.2021 22:12 24,8 C 23,9 C 21,7 C 77 % 1009,2 hPa 0,0 l/m 0 min 0 min 0 W/m 6,4 km/h (2 Bft) 95,65 %
19.06.2021 22:14 24,7 C 23,9 C 21,7 C 78 % 1009,1 hPa 0,0 l/m 0 min 0 min 0 W/m 6,4 km/h (2 Bft) 95,74 %
19.06.2021 22:16 24,7 C 23,9 C 21,7 C 78 % 1009,0 hPa 0,0 l/m 0 min 0 min 0 W/m 6,4 km/h (2 Bft) 98,21 %
19.06.2021 22:18 24,7 C 23,9 C 21,7 C 78 % 1008,9 hPa 0,0 l/m 0 min 0 min 0 W/m 6,4 km/h (2 Bft) 97,87 %
19.06.2021 22:20 24,6 C 23,9 C 21,7 C 78 % 1008,9 hPa 0,0 l/m 0 min 0 min 0 W/m 6,4 km/h (2 Bft) 100,00 %
19.06.2021 22:22 24,6 C 23,9 C 21,7 C 78 % 1008,9 hPa 0,0 l/m 0 min 0 min 0 W/m 9,7 km/h (2 Bft) 97,87 %
19.06.2021 22:24 24,6 C 23,9 C 21,7 C 78 % 1008,9 hPa 0,0 l/m 0 min 0 min 0 W/m 6,4 km/h (2 Bft) 100,00 %
19.06.2021 22:26 24,6 C 23,9 C 21,7 C 78 % 1008,8 hPa 0,0 l/m 0 min 0 min 0 W/m 9,7 km/h (2 Bft) 98,00 %
19.06.2021 22:28 24,5 C 23,9 C 21,7 C 78 % 1008,8 hPa 0,0 l/m 0 min 0 min 0 W/m 6,4 km/h (2 Bft) 100,00 %
19.06.2021 22:30 24,5 C 23,9 C 21,7 C 78 % 1008,8 hPa 0,0 l/m 0 min 0 min 0 W/m 6,4 km/h (2 Bft) 100,00 %
19.06.2021 22:32 24,5 C 23,9 C 21,7 C 78 % 1008,6 hPa 0,0 l/m 0 min 0 min 0 W/m 6,4 km/h (2 Bft) 100,00 %
19.06.2021 22:34 24,5 C 23,9 C 21,7 C 78 % 1008,5 hPa 0,0 l/m 0 min 0 min 0 W/m 9,7 km/h (2 Bft) 100,00 %
19.06.2021 22:36 24,5 C 23,9 C 21,7 C 78 % 1008,4 hPa 0,0 l/m 0 min 0 min 0 W/m 3,2 km/h (1 Bft) 100,00 %
19.06.2021 22:38 24,5 C 23,9 C 21,7 C 78 % 1008,4 hPa 0,0 l/m 0 min 0 min 0 W/m 3,2 km/h (1 Bft) 100,00 %
19.06.2021 22:40 24,5 C 23,9 C 21,7 C 78 % 1008,4 hPa 0,0 l/m 0 min 0 min 0 W/m 3,2 km/h (1 Bft) 100,00 %
19.06.2021 22:42 24,5 C 23,9 C 21,7 C 78 % 1008,3 hPa 0,0 l/m 0 min 0 min 0 W/m 6,4 km/h (2 Bft) 100,00 %
19.06.2021 22:44 24,5 C 23,9 C 21,7 C 78 % 1008,2 hPa 0,0 l/m 0 min 0 min 0 W/m 6,4 km/h (2 Bft) 100,00 %
19.06.2021 22:46 24,5 C 23,9 C 21,7 C 78 % 1008,3 hPa 0,0 l/m 0 min 0 min 0 W/m 3,2 km/h (1 Bft) 100,00 %
19.06.2021 22:48 24,5 C 23,9 C 21,7 C 78 % 1008,2 hPa 0,0 l/m 0 min 0 min 0 W/m 3,2 km/h (1 Bft) 100,00 %
19.06.2021 22:50 24,5 C 23,9 C 21,7 C 78 % 1008,2 hPa 0,0 l/m 0 min 0 min 0 W/m 6,4 km/h (2 Bft) 100,00 %
19.06.2021 22:52 24,6 C 23,9 C 21,7 C 78 % 1008,1 hPa 0,0 l/m 0 min 0 min 0 W/m 3,2 km/h (1 Bft) 100,00 %
19.06.2021 22:54 24,6 C 23,9 C 21,7 C 78 % 1008,1 hPa 0,0 l/m 0 min 0 min 0 W/m 3,2 km/h (1 Bft) 100,00 %
19.06.2021 22:56 24,6 C 23,9 C 21,7 C 78 % 1008,1 hPa 0,0 l/m 0 min 0 min 0 W/m 3,2 km/h (1 Bft) 100,00 %
19.06.2021 22:58 24,6 C 23,9 C 21,7 C 77 % 1008,1 hPa 0,0 l/m 0 min 0 min 0 W/m 3,2 km/h (1 Bft) 100,00 %
19.06.2021 23:00 24,6 C 23,9 C 21,7 C 77 % 1008,1 hPa 0,0 l/m 0 min 0 min 0 W/m 3,2 km/h (1 Bft) 100,00 %
19.06.2021 23:02 24,6 C 23,9 C 21,7 C 77 % 1008,0 hPa 0,0 l/m 0 min 0 min 0 W/m 3,2 km/h (1 Bft) 98,00 %
19.06.2021 23:04 24,6 C 23,9 C 21,7 C 77 % 1007,9 hPa 0,0 l/m 0 min 0 min 0 W/m 3,2 km/h (1 Bft) 97,87 %
19.06.2021 23:06 24,6 C 23,9 C 22,3 C 76 % 1008,0 hPa 0,0 l/m 0 min 0 min 0 W/m 3,2 km/h (1 Bft) 97,87 %
19.06.2021 23:08 24,7 C 23,9 C 22,3 C 76 % 1007,9 hPa 0,0 l/m 0 min 0 min 0 W/m 3,2 km/h (1 Bft) 100,00 %
19.06.2021 23:10 24,7 C 23,9 C 22,3 C 75 % 1008,0 hPa 0,0 l/m 0 min 0 min 0 W/m 3,2 km/h (1 Bft) 100,00 %
19.06.2021 23:12 24,7 C 23,9 C 22,3 C 75 % 1008,1 hPa 0,0 l/m 0 min 0 min 0 W/m 16,1 km/h (3 Bft) 100,00 %
19.06.2021 23:14 24,8 C 24,4 C 22,3 C 74 % 1008,2 hPa 0,0 l/m 0 min 2 min 0 W/m 3,2 km/h (1 Bft) 98,00 %
19.06.2021 23:16 24,8 C 24,4 C 22,3 C 74 % 1008,2 hPa 0,0 l/m 0 min 2 min 0 W/m 6,4 km/h (2 Bft) 100,00 %
19.06.2021 23:18 24,8 C 23,9 C 21,7 C 74 % 1008,2 hPa 0,0 l/m 0 min 2 min 0 W/m 3,2 km/h (1 Bft) 100,00 %
19.06.2021 23:20 24,9 C 23,9 C 21,7 C 75 % 1008,2 hPa 0,0 l/m 0 min 2 min 0 W/m 3,2 km/h (1 Bft) 96,00 %
19.06.2021 23:22 24,9 C 23,9 C 21,1 C 76 % 1008,2 hPa 0,0 l/m 0 min 2 min 0 W/m 3,2 km/h (1 Bft) 97,83 %
19.06.2021 23:24 24,9 C 23,9 C 21,1 C 76 % 1008,1 hPa 0,0 l/m 0 min 2 min 0 W/m 3,2 km/h (1 Bft) 97,78 %
19.06.2021 23:26 24,8 C 23,3 C 20,6 C 77 % 1008,1 hPa 0,0 l/m 0 min 2 min 0 W/m 3,2 km/h (1 Bft) 97,96 %
19.06.2021 23:28 24,8 C 22,8 C 20,6 C 78 % 1008,2 hPa 0,0 l/m 0 min 2 min 0 W/m 3,2 km/h (1 Bft) 93,62 %
19.06.2021 23:30 24,7 C 22,8 C 20,0 C 78 % 1008,2 hPa 0,0 l/m 0 min 2 min 0 W/m 3,2 km/h (1 Bft) 96,23 %
19.06.2021 23:32 24,6 C 22,8 C 20,0 C 79 % 1008,3 hPa 0,0 l/m 0 min 2 min 0 W/m 3,2 km/h (1 Bft) 94,87 %
19.06.2021 23:34 24,5 C 22,2 C 19,5 C 79 % 1008,4 hPa 0,2 l/m 0 min 2 min 0 W/m 3,2 km/h (1 Bft) 95,65 %
19.06.2021 23:36 24,4 C 22,2 C 19,5 C 81 % 1008,3 hPa 0,0 l/m 0 min 2 min 0 W/m 3,2 km/h (1 Bft) 95,74 %
19.06.2021 23:38 24,3 C 22,2 C 19,5 C 81 % 1008,3 hPa 0,0 l/m 0 min 2 min 0 W/m 3,2 km/h (1 Bft) 95,83 %
19.06.2021 23:40 24,1 C 22,2 C 19,5 C 82 % 1008,3 hPa 0,0 l/m 0 min 2 min 0 W/m 6,4 km/h (2 Bft) 95,74 %
19.06.2021 23:42 24,0 C 22,2 C 19,5 C 82 % 1008,3 hPa 0,0 l/m 0 min 2 min 0 W/m 6,4 km/h (2 Bft) 95,83 %
19.06.2021 23:44 23,9 C 22,2 C 19,5 C 82 % 1008,3 hPa 0,0 l/m 0 min 2 min 0 W/m 3,2 km/h (1 Bft) 97,83 %
19.06.2021 23:46 23,8 C 22,2 C 19,5 C 82 % 1008,4 hPa 0,2 l/m 0 min 2 min 0 W/m 6,4 km/h (2 Bft) 95,35 %
19.06.2021 23:48 23,7 C 22,2 C 19,5 C 83 % 1008,4 hPa 0,0 l/m 0 min 2 min 0 W/m 6,4 km/h (2 Bft) 94,12 %
19.06.2021 23:50 23,6 C 22,2 C 18,9 C 82 % 1008,3 hPa 0,0 l/m 0 min 2 min 0 W/m 3,2 km/h (1 Bft) 95,74 %
19.06.2021 23:52 23,5 C 22,2 C 18,9 C 83 % 1008,5 hPa 0,0 l/m 0 min 2 min 0 W/m 6,4 km/h (2 Bft) 95,45 %
19.06.2021 23:54 23,4 C 21,7 C 18,4 C 83 % 1008,5 hPa 0,2 l/m 0 min 2 min 0 W/m 9,7 km/h (2 Bft) 96,00 %
19.06.2021 23:56 23,3 C 21,1 C 18,4 C 84 % 1008,6 hPa 0,0 l/m 0 min 2 min 0 W/m 6,4 km/h (2 Bft) 95,65 %
19.06.2021 23:58 23,1 C 21,1 C 18,4 C 83 % 1009,1 hPa 0,2 l/m 0 min 2 min 0 W/m 9,7 km/h (2 Bft) 95,45 %
_ Min-Zeit 06:26 05:48 05:46 14:20 23:04 - - - - 02:54 17:12
Minimum _ 20,8 C 20,0 C 18,4 C 56 % 1007,9 hPa - - - - 0,0 km/h (0 Bft) 88,64 %
_ Max-Zeit 17:54 17:12 12:44 06:46 09:02 23:34 12:08 23:14 14:12 08:16 00:14
Maximum _ 31,1 C 36,1 C 39,5 C 84 % 1015,3 hPa 0,2 l/m 4 min 2 min 1090 W/m 38,6 km/h
S (5 Bft)
100,00 %
Durchschnitt _ 25,7 C 26,4 C 24,6 C 70 % 1012,8 hPa #0,8 l/m #11:56 h #46 min. 487 W/m 10,9 km/h (2 Bft) 97,59 %
© 2021 W. Hausmann